<?xml version="1.0" encoding="UTF-8" standalone="no" ?>
<gpx xmlns="http://www.topografix.com/GPX/1/1" xmlns:xsi="http://www.w3.org/2001/XMLSchema-instance" xsi:schemaLocation="http://www.topografix.com/GPX/1/1 http://www.topografix.com/GPX/1/1/gpx.xsd" version="1.1" creator="VisuGPX - https://www.visugpx.com">
  <metadata>
    <name>Bois de boulogne - Bagatelle - Lacs</name>
    <desc><![CDATA[Parcours de marche nordique]]></desc>
  </metadata>
  <trk>
    <name><![CDATA[BBB Bagatelle_R3]]></name>
    <trkseg>
      <trkpt lat="48.87027" lon="2.2449">
        <ele>19.62</ele>
        <time>2021-03-24T08:21:33Z</time>
      </trkpt>
      <trkpt lat="48.87027" lon="2.2449">
        <ele>19.62</ele>
        <time>2021-03-24T08:21:34Z</time>
      </trkpt>
      <trkpt lat="48.87026" lon="2.2449">
        <ele>21.41</ele>
        <time>2021-03-24T08:21:38Z</time>
      </trkpt>
      <trkpt lat="48.87031" lon="2.24497">
        <ele>21.04</ele>
        <time>2021-03-24T08:21:56Z</time>
      </trkpt>
      <trkpt lat="48.87034" lon="2.24504">
        <ele>21.04</ele>
        <time>2021-03-24T08:22:02Z</time>
      </trkpt>
      <trkpt lat="48.8705" lon="2.24521">
        <ele>20.65</ele>
        <time>2021-03-24T08:22:20Z</time>
      </trkpt>
      <trkpt lat="48.87047" lon="2.24532">
        <ele>20.6</ele>
        <time>2021-03-24T08:22:33Z</time>
      </trkpt>
      <trkpt lat="48.87046" lon="2.24534">
        <ele>21.1</ele>
        <time>2021-03-24T08:22:34Z</time>
      </trkpt>
      <trkpt lat="48.87044" lon="2.24538">
        <ele>20.82</ele>
        <time>2021-03-24T08:22:36Z</time>
      </trkpt>
      <trkpt lat="48.87041" lon="2.24544">
        <ele>21.3</ele>
        <time>2021-03-24T08:22:40Z</time>
      </trkpt>
      <trkpt lat="48.87029" lon="2.24556">
        <ele>22.21</ele>
        <time>2021-03-24T08:22:55Z</time>
      </trkpt>
      <trkpt lat="48.87024" lon="2.2457">
        <ele>23.27</ele>
        <time>2021-03-24T08:23:08Z</time>
      </trkpt>
      <trkpt lat="48.87015" lon="2.24572">
        <ele>23.8</ele>
        <time>2021-03-24T08:23:17Z</time>
      </trkpt>
      <trkpt lat="48.87014" lon="2.24571">
        <ele>23.39</ele>
        <time>2021-03-24T08:23:18Z</time>
      </trkpt>
      <trkpt lat="48.8701" lon="2.24567">
        <ele>23.46</ele>
        <time>2021-03-24T08:23:22Z</time>
      </trkpt>
      <trkpt lat="48.87009" lon="2.24566">
        <ele>24.06</ele>
        <time>2021-03-24T08:23:23Z</time>
      </trkpt>
      <trkpt lat="48.87008" lon="2.24564">
        <ele>23.91</ele>
        <time>2021-03-24T08:23:24Z</time>
      </trkpt>
      <trkpt lat="48.86991" lon="2.24548">
        <ele>23.18</ele>
        <time>2021-03-24T08:23:42Z</time>
      </trkpt>
      <trkpt lat="48.86986" lon="2.24544">
        <ele>22.93</ele>
        <time>2021-03-24T08:23:45Z</time>
      </trkpt>
      <trkpt lat="48.86983" lon="2.24538">
        <ele>22.94</ele>
        <time>2021-03-24T08:23:48Z</time>
      </trkpt>
      <trkpt lat="48.86981" lon="2.24537">
        <ele>22.84</ele>
        <time>2021-03-24T08:23:49Z</time>
      </trkpt>
      <trkpt lat="48.8698" lon="2.24535">
        <ele>22.81</ele>
        <time>2021-03-24T08:23:50Z</time>
      </trkpt>
      <trkpt lat="48.86979" lon="2.24534">
        <ele>23.19</ele>
        <time>2021-03-24T08:23:51Z</time>
      </trkpt>
      <trkpt lat="48.86978" lon="2.24533">
        <ele>22.93</ele>
        <time>2021-03-24T08:23:52Z</time>
      </trkpt>
      <trkpt lat="48.86976" lon="2.24532">
        <ele>22.51</ele>
        <time>2021-03-24T08:23:53Z</time>
      </trkpt>
      <trkpt lat="48.86964" lon="2.24519">
        <ele>22.12</ele>
        <time>2021-03-24T08:24:05Z</time>
      </trkpt>
      <trkpt lat="48.86944" lon="2.24496">
        <ele>22.31</ele>
        <time>2021-03-24T08:24:22Z</time>
      </trkpt>
      <trkpt lat="48.86939" lon="2.24494">
        <ele>22.46</ele>
        <time>2021-03-24T08:24:25Z</time>
      </trkpt>
      <trkpt lat="48.86938" lon="2.24494">
        <ele>22.54</ele>
        <time>2021-03-24T08:24:26Z</time>
      </trkpt>
      <trkpt lat="48.86935" lon="2.24493">
        <ele>22.47</ele>
        <time>2021-03-24T08:24:27Z</time>
      </trkpt>
      <trkpt lat="48.86928" lon="2.24484">
        <ele>22.52</ele>
        <time>2021-03-24T08:24:36Z</time>
      </trkpt>
      <trkpt lat="48.86922" lon="2.2448">
        <ele>22.28</ele>
        <time>2021-03-24T08:24:41Z</time>
      </trkpt>
      <trkpt lat="48.8692" lon="2.24478">
        <ele>22.86</ele>
        <time>2021-03-24T08:24:42Z</time>
      </trkpt>
      <trkpt lat="48.86913" lon="2.24476">
        <ele>22.15</ele>
        <time>2021-03-24T08:24:48Z</time>
      </trkpt>
      <trkpt lat="48.86912" lon="2.24475">
        <ele>22.08</ele>
        <time>2021-03-24T08:24:49Z</time>
      </trkpt>
      <trkpt lat="48.86911" lon="2.24474">
        <ele>22.27</ele>
        <time>2021-03-24T08:24:50Z</time>
      </trkpt>
      <trkpt lat="48.86895" lon="2.24454">
        <ele>21.92</ele>
        <time>2021-03-24T08:25:06Z</time>
      </trkpt>
      <trkpt lat="48.86872" lon="2.24432">
        <ele>22.46</ele>
        <time>2021-03-24T08:25:21Z</time>
      </trkpt>
      <trkpt lat="48.8686" lon="2.24414">
        <ele>22.16</ele>
        <time>2021-03-24T08:25:35Z</time>
      </trkpt>
      <trkpt lat="48.86857" lon="2.24411">
        <ele>22.07</ele>
        <time>2021-03-24T08:25:37Z</time>
      </trkpt>
      <trkpt lat="48.86845" lon="2.24396">
        <ele>21.97</ele>
        <time>2021-03-24T08:25:48Z</time>
      </trkpt>
      <trkpt lat="48.86844" lon="2.24395">
        <ele>22.67</ele>
        <time>2021-03-24T08:25:49Z</time>
      </trkpt>
      <trkpt lat="48.86842" lon="2.24393">
        <ele>22.02</ele>
        <time>2021-03-24T08:25:50Z</time>
      </trkpt>
      <trkpt lat="48.86828" lon="2.24379">
        <ele>22.3</ele>
        <time>2021-03-24T08:26:00Z</time>
      </trkpt>
      <trkpt lat="48.86809" lon="2.24362">
        <ele>22.03</ele>
        <time>2021-03-24T08:26:14Z</time>
      </trkpt>
      <trkpt lat="48.8679" lon="2.24344">
        <ele>21.47</ele>
        <time>2021-03-24T08:26:30Z</time>
      </trkpt>
      <trkpt lat="48.86788" lon="2.24343">
        <ele>22.34</ele>
        <time>2021-03-24T08:26:31Z</time>
      </trkpt>
      <trkpt lat="48.86787" lon="2.24342">
        <ele>22.11</ele>
        <time>2021-03-24T08:26:32Z</time>
      </trkpt>
      <trkpt lat="48.86786" lon="2.2434">
        <ele>22.1</ele>
        <time>2021-03-24T08:26:33Z</time>
      </trkpt>
      <trkpt lat="48.86784" lon="2.24338">
        <ele>22.43</ele>
        <time>2021-03-24T08:26:34Z</time>
      </trkpt>
      <trkpt lat="48.86779" lon="2.24334">
        <ele>22.59</ele>
        <time>2021-03-24T08:26:39Z</time>
      </trkpt>
      <trkpt lat="48.86759" lon="2.24316">
        <ele>22.36</ele>
        <time>2021-03-24T08:26:52Z</time>
      </trkpt>
      <trkpt lat="48.86758" lon="2.24315">
        <ele>22.68</ele>
        <time>2021-03-24T08:26:53Z</time>
      </trkpt>
      <trkpt lat="48.86751" lon="2.24309">
        <ele>22.47</ele>
        <time>2021-03-24T08:26:59Z</time>
      </trkpt>
      <trkpt lat="48.8675" lon="2.24307">
        <ele>22.31</ele>
        <time>2021-03-24T08:27:00Z</time>
      </trkpt>
      <trkpt lat="48.86749" lon="2.24306">
        <ele>22.34</ele>
        <time>2021-03-24T08:27:01Z</time>
      </trkpt>
      <trkpt lat="48.86745" lon="2.24303">
        <ele>22.5</ele>
        <time>2021-03-24T08:27:04Z</time>
      </trkpt>
      <trkpt lat="48.86729" lon="2.24293">
        <ele>22.11</ele>
        <time>2021-03-24T08:27:17Z</time>
      </trkpt>
      <trkpt lat="48.86721" lon="2.24289">
        <ele>22.79</ele>
        <time>2021-03-24T08:27:22Z</time>
      </trkpt>
      <trkpt lat="48.8672" lon="2.24288">
        <ele>22.6</ele>
        <time>2021-03-24T08:27:23Z</time>
      </trkpt>
      <trkpt lat="48.86708" lon="2.24276">
        <ele>22.49</ele>
        <time>2021-03-24T08:27:34Z</time>
      </trkpt>
      <trkpt lat="48.86685" lon="2.24255">
        <ele>22.9</ele>
        <time>2021-03-24T08:27:49Z</time>
      </trkpt>
      <trkpt lat="48.86675" lon="2.24245">
        <ele>22.03</ele>
        <time>2021-03-24T08:27:58Z</time>
      </trkpt>
      <trkpt lat="48.86659" lon="2.24241">
        <ele>21.99</ele>
        <time>2021-03-24T08:28:09Z</time>
      </trkpt>
      <trkpt lat="48.86644" lon="2.2424">
        <ele>22.21</ele>
        <time>2021-03-24T08:28:21Z</time>
      </trkpt>
      <trkpt lat="48.86638" lon="2.24251">
        <ele>23.12</ele>
        <time>2021-03-24T08:28:34Z</time>
      </trkpt>
      <trkpt lat="48.86629" lon="2.24269">
        <ele>23.77</ele>
        <time>2021-03-24T08:28:45Z</time>
      </trkpt>
      <trkpt lat="48.86622" lon="2.24298">
        <ele>25.65</ele>
        <time>2021-03-24T08:29:01Z</time>
      </trkpt>
      <trkpt lat="48.86618" lon="2.24325">
        <ele>26.18</ele>
        <time>2021-03-24T08:29:14Z</time>
      </trkpt>
      <trkpt lat="48.86615" lon="2.24334">
        <ele>26.37</ele>
        <time>2021-03-24T08:29:19Z</time>
      </trkpt>
      <trkpt lat="48.86606" lon="2.24367">
        <ele>26.95</ele>
        <time>2021-03-24T08:29:34Z</time>
      </trkpt>
      <trkpt lat="48.86601" lon="2.24389">
        <ele>27.31</ele>
        <time>2021-03-24T08:29:45Z</time>
      </trkpt>
      <trkpt lat="48.866" lon="2.2439">
        <ele>27.43</ele>
        <time>2021-03-24T08:29:46Z</time>
      </trkpt>
      <trkpt lat="48.86598" lon="2.24395">
        <ele>27.38</ele>
        <time>2021-03-24T08:29:49Z</time>
      </trkpt>
      <trkpt lat="48.86588" lon="2.24413">
        <ele>27.78</ele>
        <time>2021-03-24T08:29:57Z</time>
      </trkpt>
      <trkpt lat="48.8658" lon="2.24437">
        <ele>28.98</ele>
        <time>2021-03-24T08:30:11Z</time>
      </trkpt>
      <trkpt lat="48.86578" lon="2.24444">
        <ele>29.31</ele>
        <time>2021-03-24T08:30:15Z</time>
      </trkpt>
      <trkpt lat="48.86577" lon="2.24449">
        <ele>29.15</ele>
        <time>2021-03-24T08:30:18Z</time>
      </trkpt>
      <trkpt lat="48.86561" lon="2.24472">
        <ele>29.86</ele>
        <time>2021-03-24T08:30:32Z</time>
      </trkpt>
      <trkpt lat="48.86559" lon="2.24473">
        <ele>29.42</ele>
        <time>2021-03-24T08:31:04Z</time>
      </trkpt>
      <trkpt lat="48.86552" lon="2.24481">
        <ele>29.8</ele>
        <time>2021-03-24T08:31:19Z</time>
      </trkpt>
      <trkpt lat="48.86551" lon="2.24481">
        <ele>29.95</ele>
        <time>2021-03-24T08:31:22Z</time>
      </trkpt>
      <trkpt lat="48.86546" lon="2.24485">
        <ele>29.7</ele>
        <time>2021-03-24T08:31:26Z</time>
      </trkpt>
      <trkpt lat="48.86539" lon="2.24504">
        <ele>29.24</ele>
        <time>2021-03-24T08:31:37Z</time>
      </trkpt>
      <trkpt lat="48.86536" lon="2.24511">
        <ele>29.96</ele>
        <time>2021-03-24T08:31:41Z</time>
      </trkpt>
      <trkpt lat="48.8653" lon="2.24522">
        <ele>30.06</ele>
        <time>2021-03-24T08:31:49Z</time>
      </trkpt>
      <trkpt lat="48.8652" lon="2.24542">
        <ele>30.12</ele>
        <time>2021-03-24T08:32:02Z</time>
      </trkpt>
      <trkpt lat="48.86518" lon="2.24576">
        <ele>30.05</ele>
        <time>2021-03-24T08:32:17Z</time>
      </trkpt>
      <trkpt lat="48.86522" lon="2.24594">
        <ele>30.65</ele>
        <time>2021-03-24T08:32:26Z</time>
      </trkpt>
      <trkpt lat="48.86521" lon="2.246">
        <ele>30.22</ele>
        <time>2021-03-24T08:32:29Z</time>
      </trkpt>
      <trkpt lat="48.8652" lon="2.24604">
        <ele>29.72</ele>
        <time>2021-03-24T08:32:31Z</time>
      </trkpt>
      <trkpt lat="48.86519" lon="2.24626">
        <ele>30.57</ele>
        <time>2021-03-24T08:32:42Z</time>
      </trkpt>
      <trkpt lat="48.8651" lon="2.24652">
        <ele>30.41</ele>
        <time>2021-03-24T08:32:54Z</time>
      </trkpt>
      <trkpt lat="48.865" lon="2.24685">
        <ele>30.1</ele>
        <time>2021-03-24T08:33:13Z</time>
      </trkpt>
      <trkpt lat="48.86501" lon="2.24691">
        <ele>30.42</ele>
        <time>2021-03-24T08:33:16Z</time>
      </trkpt>
      <trkpt lat="48.86502" lon="2.24719">
        <ele>30</ele>
        <time>2021-03-24T08:33:31Z</time>
      </trkpt>
      <trkpt lat="48.86493" lon="2.24752">
        <ele>30.32</ele>
        <time>2021-03-24T08:33:48Z</time>
      </trkpt>
      <trkpt lat="48.86492" lon="2.24764">
        <ele>29.24</ele>
        <time>2021-03-24T08:33:52Z</time>
      </trkpt>
      <trkpt lat="48.86489" lon="2.24771">
        <ele>29.74</ele>
        <time>2021-03-24T08:33:55Z</time>
      </trkpt>
      <trkpt lat="48.86491" lon="2.24789">
        <ele>30.72</ele>
        <time>2021-03-24T08:34:09Z</time>
      </trkpt>
      <trkpt lat="48.86495" lon="2.24804">
        <ele>29.97</ele>
        <time>2021-03-24T08:34:19Z</time>
      </trkpt>
      <trkpt lat="48.86508" lon="2.24832">
        <ele>29.74</ele>
        <time>2021-03-24T08:34:37Z</time>
      </trkpt>
      <trkpt lat="48.86509" lon="2.24863">
        <ele>30.24</ele>
        <time>2021-03-24T08:34:54Z</time>
      </trkpt>
      <trkpt lat="48.86506" lon="2.24868">
        <ele>30.15</ele>
        <time>2021-03-24T08:34:57Z</time>
      </trkpt>
      <trkpt lat="48.86496" lon="2.24861">
        <ele>29.9</ele>
        <time>2021-03-24T08:35:10Z</time>
      </trkpt>
      <trkpt lat="48.86486" lon="2.24865">
        <ele>29.55</ele>
        <time>2021-03-24T08:35:29Z</time>
      </trkpt>
      <trkpt lat="48.86476" lon="2.24874">
        <ele>28.89</ele>
        <time>2021-03-24T08:35:50Z</time>
      </trkpt>
      <trkpt lat="48.86476" lon="2.2488">
        <ele>28.7</ele>
        <time>2021-03-24T08:35:54Z</time>
      </trkpt>
      <trkpt lat="48.86476" lon="2.24893">
        <ele>28.86</ele>
        <time>2021-03-24T08:36:01Z</time>
      </trkpt>
      <trkpt lat="48.86478" lon="2.24899">
        <ele>28.88</ele>
        <time>2021-03-24T08:36:05Z</time>
      </trkpt>
      <trkpt lat="48.86486" lon="2.24923">
        <ele>28.21</ele>
        <time>2021-03-24T08:36:16Z</time>
      </trkpt>
      <trkpt lat="48.86502" lon="2.24943">
        <ele>28.58</ele>
        <time>2021-03-24T08:36:28Z</time>
      </trkpt>
      <trkpt lat="48.86517" lon="2.24962">
        <ele>28.03</ele>
        <time>2021-03-24T08:36:43Z</time>
      </trkpt>
      <trkpt lat="48.86525" lon="2.2498">
        <ele>28.76</ele>
        <time>2021-03-24T08:36:56Z</time>
      </trkpt>
      <trkpt lat="48.86532" lon="2.24996">
        <ele>27.57</ele>
        <time>2021-03-24T08:37:03Z</time>
      </trkpt>
      <trkpt lat="48.86532" lon="2.25001">
        <ele>28.71</ele>
        <time>2021-03-24T08:37:06Z</time>
      </trkpt>
      <trkpt lat="48.86538" lon="2.25028">
        <ele>28.32</ele>
        <time>2021-03-24T08:37:22Z</time>
      </trkpt>
      <trkpt lat="48.86547" lon="2.2505">
        <ele>28.37</ele>
        <time>2021-03-24T08:37:39Z</time>
      </trkpt>
      <trkpt lat="48.86552" lon="2.25057">
        <ele>28.4</ele>
        <time>2021-03-24T08:37:43Z</time>
      </trkpt>
      <trkpt lat="48.86551" lon="2.25062">
        <ele>28.2</ele>
        <time>2021-03-24T08:37:47Z</time>
      </trkpt>
      <trkpt lat="48.86547" lon="2.25071">
        <ele>27.58</ele>
        <time>2021-03-24T08:37:59Z</time>
      </trkpt>
      <trkpt lat="48.86549" lon="2.2508">
        <ele>27.72</ele>
        <time>2021-03-24T08:38:05Z</time>
      </trkpt>
      <trkpt lat="48.86553" lon="2.25083">
        <ele>27.71</ele>
        <time>2021-03-24T08:38:10Z</time>
      </trkpt>
      <trkpt lat="48.86564" lon="2.25103">
        <ele>27.45</ele>
        <time>2021-03-24T08:38:23Z</time>
      </trkpt>
      <trkpt lat="48.86567" lon="2.25116">
        <ele>27.88</ele>
        <time>2021-03-24T08:38:29Z</time>
      </trkpt>
      <trkpt lat="48.86568" lon="2.2512">
        <ele>27.28</ele>
        <time>2021-03-24T08:38:31Z</time>
      </trkpt>
      <trkpt lat="48.8657" lon="2.25122">
        <ele>27.62</ele>
        <time>2021-03-24T08:38:33Z</time>
      </trkpt>
      <trkpt lat="48.86587" lon="2.25151">
        <ele>27.64</ele>
        <time>2021-03-24T08:38:48Z</time>
      </trkpt>
      <trkpt lat="48.86604" lon="2.25164">
        <ele>27.57</ele>
        <time>2021-03-24T08:39:02Z</time>
      </trkpt>
      <trkpt lat="48.86619" lon="2.2518">
        <ele>27.64</ele>
        <time>2021-03-24T08:39:17Z</time>
      </trkpt>
      <trkpt lat="48.8662" lon="2.25181">
        <ele>27.53</ele>
        <time>2021-03-24T08:39:18Z</time>
      </trkpt>
      <trkpt lat="48.86624" lon="2.25188">
        <ele>27.18</ele>
        <time>2021-03-24T08:39:22Z</time>
      </trkpt>
      <trkpt lat="48.86627" lon="2.25194">
        <ele>27.18</ele>
        <time>2021-03-24T08:39:25Z</time>
      </trkpt>
      <trkpt lat="48.8663" lon="2.25208">
        <ele>27.47</ele>
        <time>2021-03-24T08:39:33Z</time>
      </trkpt>
      <trkpt lat="48.86637" lon="2.25224">
        <ele>27.23</ele>
        <time>2021-03-24T08:39:41Z</time>
      </trkpt>
      <trkpt lat="48.86655" lon="2.25242">
        <ele>25.86</ele>
        <time>2021-03-24T08:39:56Z</time>
      </trkpt>
      <trkpt lat="48.86658" lon="2.25245">
        <ele>25.75</ele>
        <time>2021-03-24T08:39:58Z</time>
      </trkpt>
      <trkpt lat="48.86672" lon="2.25258">
        <ele>26.35</ele>
        <time>2021-03-24T08:40:09Z</time>
      </trkpt>
      <trkpt lat="48.86687" lon="2.25273">
        <ele>26.2</ele>
        <time>2021-03-24T08:40:19Z</time>
      </trkpt>
      <trkpt lat="48.86703" lon="2.25298">
        <ele>26.5</ele>
        <time>2021-03-24T08:40:34Z</time>
      </trkpt>
      <trkpt lat="48.86709" lon="2.25309">
        <ele>26.08</ele>
        <time>2021-03-24T08:40:42Z</time>
      </trkpt>
      <trkpt lat="48.86711" lon="2.25314">
        <ele>26.39</ele>
        <time>2021-03-24T08:40:44Z</time>
      </trkpt>
      <trkpt lat="48.86724" lon="2.25344">
        <ele>25.86</ele>
        <time>2021-03-24T08:40:57Z</time>
      </trkpt>
      <trkpt lat="48.86726" lon="2.2535">
        <ele>25.47</ele>
        <time>2021-03-24T08:41:00Z</time>
      </trkpt>
      <trkpt lat="48.8673" lon="2.25364">
        <ele>25.81</ele>
        <time>2021-03-24T08:41:07Z</time>
      </trkpt>
      <trkpt lat="48.8674" lon="2.25388">
        <ele>25.97</ele>
        <time>2021-03-24T08:41:19Z</time>
      </trkpt>
      <trkpt lat="48.86743" lon="2.25396">
        <ele>25.95</ele>
        <time>2021-03-24T08:41:23Z</time>
      </trkpt>
      <trkpt lat="48.86744" lon="2.25406">
        <ele>25.76</ele>
        <time>2021-03-24T08:41:27Z</time>
      </trkpt>
      <trkpt lat="48.86746" lon="2.25426">
        <ele>25.94</ele>
        <time>2021-03-24T08:41:36Z</time>
      </trkpt>
      <trkpt lat="48.86747" lon="2.25442">
        <ele>26.63</ele>
        <time>2021-03-24T08:41:44Z</time>
      </trkpt>
      <trkpt lat="48.86746" lon="2.25451">
        <ele>25.72</ele>
        <time>2021-03-24T08:41:49Z</time>
      </trkpt>
      <trkpt lat="48.86747" lon="2.25488">
        <ele>26.06</ele>
        <time>2021-03-24T08:42:03Z</time>
      </trkpt>
      <trkpt lat="48.8675" lon="2.25512">
        <ele>25.89</ele>
        <time>2021-03-24T08:42:15Z</time>
      </trkpt>
      <trkpt lat="48.86757" lon="2.25541">
        <ele>25.7</ele>
        <time>2021-03-24T08:42:29Z</time>
      </trkpt>
      <trkpt lat="48.86759" lon="2.25571">
        <ele>26.33</ele>
        <time>2021-03-24T08:42:43Z</time>
      </trkpt>
      <trkpt lat="48.86758" lon="2.25585">
        <ele>25.96</ele>
        <time>2021-03-24T08:42:48Z</time>
      </trkpt>
      <trkpt lat="48.86758" lon="2.25607">
        <ele>25.46</ele>
        <time>2021-03-24T08:42:57Z</time>
      </trkpt>
      <trkpt lat="48.8676" lon="2.25615">
        <ele>26.14</ele>
        <time>2021-03-24T08:43:00Z</time>
      </trkpt>
      <trkpt lat="48.86775" lon="2.25636">
        <ele>26.43</ele>
        <time>2021-03-24T08:43:14Z</time>
      </trkpt>
      <trkpt lat="48.8678" lon="2.25665">
        <ele>26.37</ele>
        <time>2021-03-24T08:43:25Z</time>
      </trkpt>
      <trkpt lat="48.86774" lon="2.25691">
        <ele>26.2</ele>
        <time>2021-03-24T08:43:38Z</time>
      </trkpt>
      <trkpt lat="48.86766" lon="2.25708">
        <ele>25.97</ele>
        <time>2021-03-24T08:43:50Z</time>
      </trkpt>
      <trkpt lat="48.86764" lon="2.25714">
        <ele>26.03</ele>
        <time>2021-03-24T08:43:54Z</time>
      </trkpt>
      <trkpt lat="48.86758" lon="2.25742">
        <ele>26.03</ele>
        <time>2021-03-24T08:44:10Z</time>
      </trkpt>
      <trkpt lat="48.86753" lon="2.25748">
        <ele>25.85</ele>
        <time>2021-03-24T08:44:30Z</time>
      </trkpt>
      <trkpt lat="48.86754" lon="2.25752">
        <ele>25.45</ele>
        <time>2021-03-24T08:45:05Z</time>
      </trkpt>
      <trkpt lat="48.86755" lon="2.25754">
        <ele>25.29</ele>
        <time>2021-03-24T08:45:06Z</time>
      </trkpt>
      <trkpt lat="48.86755" lon="2.25758">
        <ele>25.88</ele>
        <time>2021-03-24T08:45:08Z</time>
      </trkpt>
      <trkpt lat="48.86758" lon="2.25772">
        <ele>25.74</ele>
        <time>2021-03-24T08:45:14Z</time>
      </trkpt>
      <trkpt lat="48.8676" lon="2.25778">
        <ele>25.71</ele>
        <time>2021-03-24T08:45:17Z</time>
      </trkpt>
      <trkpt lat="48.86773" lon="2.25795">
        <ele>25.43</ele>
        <time>2021-03-24T08:45:32Z</time>
      </trkpt>
      <trkpt lat="48.86777" lon="2.25795">
        <ele>25.39</ele>
        <time>2021-03-24T08:45:35Z</time>
      </trkpt>
      <trkpt lat="48.86786" lon="2.25802">
        <ele>25.09</ele>
        <time>2021-03-24T08:45:42Z</time>
      </trkpt>
      <trkpt lat="48.86798" lon="2.25824">
        <ele>25.57</ele>
        <time>2021-03-24T08:45:55Z</time>
      </trkpt>
      <trkpt lat="48.868" lon="2.25831">
        <ele>25.52</ele>
        <time>2021-03-24T08:45:58Z</time>
      </trkpt>
      <trkpt lat="48.86804" lon="2.25838">
        <ele>25.71</ele>
        <time>2021-03-24T08:46:02Z</time>
      </trkpt>
      <trkpt lat="48.86812" lon="2.25868">
        <ele>25.11</ele>
        <time>2021-03-24T08:46:15Z</time>
      </trkpt>
      <trkpt lat="48.86815" lon="2.25881">
        <ele>26.25</ele>
        <time>2021-03-24T08:46:21Z</time>
      </trkpt>
      <trkpt lat="48.86814" lon="2.25907">
        <ele>24.41</ele>
        <time>2021-03-24T08:46:33Z</time>
      </trkpt>
      <trkpt lat="48.86813" lon="2.25918">
        <ele>24.42</ele>
        <time>2021-03-24T08:46:38Z</time>
      </trkpt>
      <trkpt lat="48.86811" lon="2.25933">
        <ele>24.83</ele>
        <time>2021-03-24T08:46:44Z</time>
      </trkpt>
      <trkpt lat="48.8681" lon="2.25947">
        <ele>25.25</ele>
        <time>2021-03-24T08:46:50Z</time>
      </trkpt>
      <trkpt lat="48.86811" lon="2.25967">
        <ele>24.97</ele>
        <time>2021-03-24T08:46:59Z</time>
      </trkpt>
      <trkpt lat="48.86814" lon="2.25973">
        <ele>24.7</ele>
        <time>2021-03-24T08:47:02Z</time>
      </trkpt>
      <trkpt lat="48.86817" lon="2.26001">
        <ele>25.21</ele>
        <time>2021-03-24T08:47:15Z</time>
      </trkpt>
      <trkpt lat="48.86818" lon="2.26016">
        <ele>24.68</ele>
        <time>2021-03-24T08:47:21Z</time>
      </trkpt>
      <trkpt lat="48.86818" lon="2.26024">
        <ele>24.97</ele>
        <time>2021-03-24T08:47:24Z</time>
      </trkpt>
      <trkpt lat="48.8681" lon="2.2605">
        <ele>24.71</ele>
        <time>2021-03-24T08:47:37Z</time>
      </trkpt>
      <trkpt lat="48.86808" lon="2.2606">
        <ele>24.57</ele>
        <time>2021-03-24T08:47:42Z</time>
      </trkpt>
      <trkpt lat="48.86798" lon="2.26085">
        <ele>24.48</ele>
        <time>2021-03-24T08:47:56Z</time>
      </trkpt>
      <trkpt lat="48.8679" lon="2.26107">
        <ele>24.69</ele>
        <time>2021-03-24T08:48:11Z</time>
      </trkpt>
      <trkpt lat="48.86796" lon="2.26128">
        <ele>24.5</ele>
        <time>2021-03-24T08:48:24Z</time>
      </trkpt>
      <trkpt lat="48.86806" lon="2.26153">
        <ele>24.22</ele>
        <time>2021-03-24T08:48:38Z</time>
      </trkpt>
      <trkpt lat="48.86812" lon="2.26179">
        <ele>24.18</ele>
        <time>2021-03-24T08:48:51Z</time>
      </trkpt>
      <trkpt lat="48.86814" lon="2.26181">
        <ele>24.66</ele>
        <time>2021-03-24T08:48:52Z</time>
      </trkpt>
      <trkpt lat="48.86816" lon="2.26183">
        <ele>24.75</ele>
        <time>2021-03-24T08:48:55Z</time>
      </trkpt>
      <trkpt lat="48.86825" lon="2.26204">
        <ele>24.08</ele>
        <time>2021-03-24T08:49:05Z</time>
      </trkpt>
      <trkpt lat="48.86836" lon="2.26229">
        <ele>25.02</ele>
        <time>2021-03-24T08:49:16Z</time>
      </trkpt>
      <trkpt lat="48.86849" lon="2.26245">
        <ele>24.9</ele>
        <time>2021-03-24T08:49:29Z</time>
      </trkpt>
      <trkpt lat="48.86865" lon="2.26261">
        <ele>24.29</ele>
        <time>2021-03-24T08:49:43Z</time>
      </trkpt>
      <trkpt lat="48.8688" lon="2.26286">
        <ele>22.51</ele>
        <time>2021-03-24T08:50:02Z</time>
      </trkpt>
      <trkpt lat="48.86876" lon="2.26311">
        <ele>23.7</ele>
        <time>2021-03-24T08:50:16Z</time>
      </trkpt>
      <trkpt lat="48.86877" lon="2.2633">
        <ele>23.15</ele>
        <time>2021-03-24T08:50:46Z</time>
      </trkpt>
      <trkpt lat="48.86878" lon="2.2633">
        <ele>22.98</ele>
        <time>2021-03-24T08:50:47Z</time>
      </trkpt>
      <trkpt lat="48.86891" lon="2.26349">
        <ele>22.98</ele>
        <time>2021-03-24T08:51:03Z</time>
      </trkpt>
      <trkpt lat="48.86896" lon="2.26356">
        <ele>22.71</ele>
        <time>2021-03-24T08:51:09Z</time>
      </trkpt>
      <trkpt lat="48.869" lon="2.26361">
        <ele>22.64</ele>
        <time>2021-03-24T08:51:13Z</time>
      </trkpt>
      <trkpt lat="48.86916" lon="2.2638">
        <ele>22.31</ele>
        <time>2021-03-24T08:51:26Z</time>
      </trkpt>
      <trkpt lat="48.86931" lon="2.26393">
        <ele>22.19</ele>
        <time>2021-03-24T08:51:37Z</time>
      </trkpt>
      <trkpt lat="48.86936" lon="2.26393">
        <ele>22.09</ele>
        <time>2021-03-24T08:51:42Z</time>
      </trkpt>
      <trkpt lat="48.86952" lon="2.26399">
        <ele>21.62</ele>
        <time>2021-03-24T08:51:55Z</time>
      </trkpt>
      <trkpt lat="48.86967" lon="2.2641">
        <ele>21.46</ele>
        <time>2021-03-24T08:52:09Z</time>
      </trkpt>
      <trkpt lat="48.86981" lon="2.26422">
        <ele>20.91</ele>
        <time>2021-03-24T08:52:26Z</time>
      </trkpt>
      <trkpt lat="48.86981" lon="2.26423">
        <ele>20.86</ele>
        <time>2021-03-24T08:52:27Z</time>
      </trkpt>
      <trkpt lat="48.86981" lon="2.26426">
        <ele>20.9</ele>
        <time>2021-03-24T08:52:30Z</time>
      </trkpt>
      <trkpt lat="48.86978" lon="2.26429">
        <ele>21.75</ele>
        <time>2021-03-24T08:52:35Z</time>
      </trkpt>
      <trkpt lat="48.86982" lon="2.26438">
        <ele>21.34</ele>
        <time>2021-03-24T08:52:45Z</time>
      </trkpt>
      <trkpt lat="48.86984" lon="2.26443">
        <ele>21.63</ele>
        <time>2021-03-24T08:52:49Z</time>
      </trkpt>
      <trkpt lat="48.8699" lon="2.26467">
        <ele>21.39</ele>
        <time>2021-03-24T08:53:05Z</time>
      </trkpt>
      <trkpt lat="48.86991" lon="2.26456">
        <ele>21.5</ele>
        <time>2021-03-24T08:53:20Z</time>
      </trkpt>
      <trkpt lat="48.86992" lon="2.26455">
        <ele>21.5</ele>
        <time>2021-03-24T08:53:21Z</time>
      </trkpt>
      <trkpt lat="48.86994" lon="2.26455">
        <ele>21.25</ele>
        <time>2021-03-24T08:53:24Z</time>
      </trkpt>
      <trkpt lat="48.87004" lon="2.2646">
        <ele>21.15</ele>
        <time>2021-03-24T08:53:34Z</time>
      </trkpt>
      <trkpt lat="48.87021" lon="2.26473">
        <ele>20.72</ele>
        <time>2021-03-24T08:53:51Z</time>
      </trkpt>
      <trkpt lat="48.87032" lon="2.26482">
        <ele>20.78</ele>
        <time>2021-03-24T08:54:00Z</time>
      </trkpt>
      <trkpt lat="48.87036" lon="2.26485">
        <ele>20.66</ele>
        <time>2021-03-24T08:54:03Z</time>
      </trkpt>
      <trkpt lat="48.87053" lon="2.26498">
        <ele>20.21</ele>
        <time>2021-03-24T08:54:16Z</time>
      </trkpt>
      <trkpt lat="48.87067" lon="2.26513">
        <ele>20.16</ele>
        <time>2021-03-24T08:54:30Z</time>
      </trkpt>
      <trkpt lat="48.87076" lon="2.26519">
        <ele>19.88</ele>
        <time>2021-03-24T08:54:37Z</time>
      </trkpt>
      <trkpt lat="48.8708" lon="2.26525">
        <ele>19.96</ele>
        <time>2021-03-24T08:54:40Z</time>
      </trkpt>
      <trkpt lat="48.87085" lon="2.26532">
        <ele>19.82</ele>
        <time>2021-03-24T08:54:45Z</time>
      </trkpt>
      <trkpt lat="48.87103" lon="2.26552">
        <ele>19.91</ele>
        <time>2021-03-24T08:55:00Z</time>
      </trkpt>
      <trkpt lat="48.87106" lon="2.26553">
        <ele>20.42</ele>
        <time>2021-03-24T08:55:02Z</time>
      </trkpt>
      <trkpt lat="48.87119" lon="2.26571">
        <ele>19.54</ele>
        <time>2021-03-24T08:55:14Z</time>
      </trkpt>
      <trkpt lat="48.87122" lon="2.26573">
        <ele>20.08</ele>
        <time>2021-03-24T08:55:16Z</time>
      </trkpt>
      <trkpt lat="48.87136" lon="2.26597">
        <ele>19.23</ele>
        <time>2021-03-24T08:55:30Z</time>
      </trkpt>
      <trkpt lat="48.8714" lon="2.26604">
        <ele>19.76</ele>
        <time>2021-03-24T08:55:33Z</time>
      </trkpt>
      <trkpt lat="48.87148" lon="2.26612">
        <ele>19.89</ele>
        <time>2021-03-24T08:55:47Z</time>
      </trkpt>
      <trkpt lat="48.87149" lon="2.26614">
        <ele>19.43</ele>
        <time>2021-03-24T08:55:49Z</time>
      </trkpt>
      <trkpt lat="48.87154" lon="2.26622">
        <ele>19.93</ele>
        <time>2021-03-24T08:55:56Z</time>
      </trkpt>
      <trkpt lat="48.87158" lon="2.2664">
        <ele>19.98</ele>
        <time>2021-03-24T08:56:03Z</time>
      </trkpt>
      <trkpt lat="48.87172" lon="2.26661">
        <ele>19.81</ele>
        <time>2021-03-24T08:56:17Z</time>
      </trkpt>
      <trkpt lat="48.87174" lon="2.26667">
        <ele>19.69</ele>
        <time>2021-03-24T08:56:20Z</time>
      </trkpt>
      <trkpt lat="48.87186" lon="2.26701">
        <ele>19.95</ele>
        <time>2021-03-24T08:56:35Z</time>
      </trkpt>
      <trkpt lat="48.87202" lon="2.26726">
        <ele>18.84</ele>
        <time>2021-03-24T08:56:51Z</time>
      </trkpt>
      <trkpt lat="48.87219" lon="2.26746">
        <ele>18.48</ele>
        <time>2021-03-24T08:57:08Z</time>
      </trkpt>
      <trkpt lat="48.87227" lon="2.26751">
        <ele>18.87</ele>
        <time>2021-03-24T08:57:15Z</time>
      </trkpt>
      <trkpt lat="48.87247" lon="2.26766">
        <ele>19.58</ele>
        <time>2021-03-24T08:57:29Z</time>
      </trkpt>
      <trkpt lat="48.87263" lon="2.26789">
        <ele>18.2</ele>
        <time>2021-03-24T08:57:45Z</time>
      </trkpt>
      <trkpt lat="48.87277" lon="2.26801">
        <ele>18.65</ele>
        <time>2021-03-24T08:57:57Z</time>
      </trkpt>
      <trkpt lat="48.87283" lon="2.26806">
        <ele>18.8</ele>
        <time>2021-03-24T08:58:04Z</time>
      </trkpt>
      <trkpt lat="48.87289" lon="2.26811">
        <ele>18.8</ele>
        <time>2021-03-24T08:58:08Z</time>
      </trkpt>
      <trkpt lat="48.87302" lon="2.26816">
        <ele>18.27</ele>
        <time>2021-03-24T08:58:13Z</time>
      </trkpt>
      <trkpt lat="48.87308" lon="2.26815">
        <ele>18.15</ele>
        <time>2021-03-24T08:58:29Z</time>
      </trkpt>
      <trkpt lat="48.87308" lon="2.26812">
        <ele>18.4</ele>
        <time>2021-03-24T08:58:53Z</time>
      </trkpt>
      <trkpt lat="48.87313" lon="2.26816">
        <ele>18.35</ele>
        <time>2021-03-24T08:59:17Z</time>
      </trkpt>
      <trkpt lat="48.87311" lon="2.26824">
        <ele>18.06</ele>
        <time>2021-03-24T08:59:44Z</time>
      </trkpt>
      <trkpt lat="48.87312" lon="2.26823">
        <ele>18.31</ele>
        <time>2021-03-24T09:00:06Z</time>
      </trkpt>
      <trkpt lat="48.8731" lon="2.26823">
        <ele>18.9</ele>
        <time>2021-03-24T09:00:33Z</time>
      </trkpt>
      <trkpt lat="48.87308" lon="2.26822">
        <ele>18.87</ele>
        <time>2021-03-24T09:01:01Z</time>
      </trkpt>
      <trkpt lat="48.87311" lon="2.26817">
        <ele>18.89</ele>
        <time>2021-03-24T09:01:24Z</time>
      </trkpt>
      <trkpt lat="48.87313" lon="2.26814">
        <ele>18.97</ele>
        <time>2021-03-24T09:01:57Z</time>
      </trkpt>
      <trkpt lat="48.87316" lon="2.26812">
        <ele>19.56</ele>
        <time>2021-03-24T09:02:22Z</time>
      </trkpt>
      <trkpt lat="48.87318" lon="2.26811">
        <ele>19.26</ele>
        <time>2021-03-24T09:02:45Z</time>
      </trkpt>
      <trkpt lat="48.87321" lon="2.26813">
        <ele>19.84</ele>
        <time>2021-03-24T09:03:13Z</time>
      </trkpt>
      <trkpt lat="48.87321" lon="2.26817">
        <ele>20.31</ele>
        <time>2021-03-24T09:03:36Z</time>
      </trkpt>
      <trkpt lat="48.87319" lon="2.26813">
        <ele>19.91</ele>
        <time>2021-03-24T09:03:59Z</time>
      </trkpt>
      <trkpt lat="48.87319" lon="2.26812">
        <ele>20.44</ele>
        <time>2021-03-24T09:04:26Z</time>
      </trkpt>
      <trkpt lat="48.87319" lon="2.2681">
        <ele>21.27</ele>
        <time>2021-03-24T09:04:49Z</time>
      </trkpt>
      <trkpt lat="48.87317" lon="2.2681">
        <ele>20.9</ele>
        <time>2021-03-24T09:05:03Z</time>
      </trkpt>
      <trkpt lat="48.87321" lon="2.26817">
        <ele>21.12</ele>
        <time>2021-03-24T09:05:13Z</time>
      </trkpt>
      <trkpt lat="48.87323" lon="2.26821">
        <ele>20.79</ele>
        <time>2021-03-24T09:05:16Z</time>
      </trkpt>
      <trkpt lat="48.87336" lon="2.26848">
        <ele>21.47</ele>
        <time>2021-03-24T09:05:31Z</time>
      </trkpt>
      <trkpt lat="48.87348" lon="2.26874">
        <ele>21.49</ele>
        <time>2021-03-24T09:05:45Z</time>
      </trkpt>
      <trkpt lat="48.87352" lon="2.26886">
        <ele>21.46</ele>
        <time>2021-03-24T09:05:52Z</time>
      </trkpt>
      <trkpt lat="48.87355" lon="2.26892">
        <ele>21.29</ele>
        <time>2021-03-24T09:05:56Z</time>
      </trkpt>
      <trkpt lat="48.87368" lon="2.2691">
        <ele>20.95</ele>
        <time>2021-03-24T09:06:07Z</time>
      </trkpt>
      <trkpt lat="48.87378" lon="2.26927">
        <ele>20.97</ele>
        <time>2021-03-24T09:06:17Z</time>
      </trkpt>
      <trkpt lat="48.87388" lon="2.26953">
        <ele>21.32</ele>
        <time>2021-03-24T09:06:31Z</time>
      </trkpt>
      <trkpt lat="48.87399" lon="2.26968">
        <ele>21.27</ele>
        <time>2021-03-24T09:06:44Z</time>
      </trkpt>
      <trkpt lat="48.87412" lon="2.26994">
        <ele>21.37</ele>
        <time>2021-03-24T09:06:59Z</time>
      </trkpt>
      <trkpt lat="48.87428" lon="2.27015">
        <ele>21.43</ele>
        <time>2021-03-24T09:07:12Z</time>
      </trkpt>
      <trkpt lat="48.87437" lon="2.27038">
        <ele>21.26</ele>
        <time>2021-03-24T09:07:26Z</time>
      </trkpt>
      <trkpt lat="48.87442" lon="2.27048">
        <ele>21.32</ele>
        <time>2021-03-24T09:07:31Z</time>
      </trkpt>
      <trkpt lat="48.87451" lon="2.27068">
        <ele>21.05</ele>
        <time>2021-03-24T09:07:42Z</time>
      </trkpt>
      <trkpt lat="48.87443" lon="2.27087">
        <ele>20.4</ele>
        <time>2021-03-24T09:07:57Z</time>
      </trkpt>
      <trkpt lat="48.87439" lon="2.27089">
        <ele>21.16</ele>
        <time>2021-03-24T09:08:00Z</time>
      </trkpt>
      <trkpt lat="48.87422" lon="2.27099">
        <ele>21.77</ele>
        <time>2021-03-24T09:08:14Z</time>
      </trkpt>
      <trkpt lat="48.87416" lon="2.27102">
        <ele>22.2</ele>
        <time>2021-03-24T09:08:22Z</time>
      </trkpt>
      <trkpt lat="48.87408" lon="2.27106">
        <ele>22.31</ele>
        <time>2021-03-24T09:08:29Z</time>
      </trkpt>
      <trkpt lat="48.87386" lon="2.27107">
        <ele>22.84</ele>
        <time>2021-03-24T09:08:44Z</time>
      </trkpt>
      <trkpt lat="48.87385" lon="2.27108">
        <ele>23.16</ele>
        <time>2021-03-24T09:08:45Z</time>
      </trkpt>
      <trkpt lat="48.8738" lon="2.27107">
        <ele>22.91</ele>
        <time>2021-03-24T09:08:48Z</time>
      </trkpt>
      <trkpt lat="48.87365" lon="2.2711">
        <ele>23.17</ele>
        <time>2021-03-24T09:09:00Z</time>
      </trkpt>
      <trkpt lat="48.87342" lon="2.27111">
        <ele>23.37</ele>
        <time>2021-03-24T09:09:14Z</time>
      </trkpt>
      <trkpt lat="48.87329" lon="2.27112">
        <ele>23.76</ele>
        <time>2021-03-24T09:09:22Z</time>
      </trkpt>
      <trkpt lat="48.87325" lon="2.27112">
        <ele>24.03</ele>
        <time>2021-03-24T09:09:25Z</time>
      </trkpt>
      <trkpt lat="48.87301" lon="2.27109">
        <ele>24.64</ele>
        <time>2021-03-24T09:09:40Z</time>
      </trkpt>
      <trkpt lat="48.87283" lon="2.27106">
        <ele>24.45</ele>
        <time>2021-03-24T09:09:52Z</time>
      </trkpt>
      <trkpt lat="48.87281" lon="2.27106">
        <ele>24.67</ele>
        <time>2021-03-24T09:09:53Z</time>
      </trkpt>
      <trkpt lat="48.87262" lon="2.27098">
        <ele>25.37</ele>
        <time>2021-03-24T09:10:06Z</time>
      </trkpt>
      <trkpt lat="48.87239" lon="2.27087">
        <ele>25.2</ele>
        <time>2021-03-24T09:10:22Z</time>
      </trkpt>
      <trkpt lat="48.87238" lon="2.27086">
        <ele>25.69</ele>
        <time>2021-03-24T09:10:23Z</time>
      </trkpt>
      <trkpt lat="48.87219" lon="2.27078">
        <ele>25.94</ele>
        <time>2021-03-24T09:10:38Z</time>
      </trkpt>
      <trkpt lat="48.87216" lon="2.27076">
        <ele>25.73</ele>
        <time>2021-03-24T09:10:40Z</time>
      </trkpt>
      <trkpt lat="48.87198" lon="2.27066">
        <ele>25.92</ele>
        <time>2021-03-24T09:10:55Z</time>
      </trkpt>
      <trkpt lat="48.87189" lon="2.27058">
        <ele>25.93</ele>
        <time>2021-03-24T09:11:03Z</time>
      </trkpt>
      <trkpt lat="48.87182" lon="2.2705">
        <ele>26.3</ele>
        <time>2021-03-24T09:11:08Z</time>
      </trkpt>
      <trkpt lat="48.87166" lon="2.27033">
        <ele>25.51</ele>
        <time>2021-03-24T09:11:23Z</time>
      </trkpt>
      <trkpt lat="48.8716" lon="2.2703">
        <ele>25.51</ele>
        <time>2021-03-24T09:11:28Z</time>
      </trkpt>
      <trkpt lat="48.87147" lon="2.27007">
        <ele>25.58</ele>
        <time>2021-03-24T09:11:42Z</time>
      </trkpt>
      <trkpt lat="48.87145" lon="2.27004">
        <ele>25.45</ele>
        <time>2021-03-24T09:11:45Z</time>
      </trkpt>
      <trkpt lat="48.87134" lon="2.26985">
        <ele>24.94</ele>
        <time>2021-03-24T09:11:57Z</time>
      </trkpt>
      <trkpt lat="48.8712" lon="2.26961">
        <ele>24.99</ele>
        <time>2021-03-24T09:12:10Z</time>
      </trkpt>
      <trkpt lat="48.87104" lon="2.26933">
        <ele>24.89</ele>
        <time>2021-03-24T09:12:28Z</time>
      </trkpt>
      <trkpt lat="48.87084" lon="2.26897">
        <ele>25.38</ele>
        <time>2021-03-24T09:12:46Z</time>
      </trkpt>
      <trkpt lat="48.87065" lon="2.26872">
        <ele>25.51</ele>
        <time>2021-03-24T09:13:03Z</time>
      </trkpt>
      <trkpt lat="48.87046" lon="2.26862">
        <ele>26.27</ele>
        <time>2021-03-24T09:13:21Z</time>
      </trkpt>
      <trkpt lat="48.8703" lon="2.26877">
        <ele>26.3</ele>
        <time>2021-03-24T09:13:38Z</time>
      </trkpt>
      <trkpt lat="48.87016" lon="2.26895">
        <ele>27.11</ele>
        <time>2021-03-24T09:13:54Z</time>
      </trkpt>
      <trkpt lat="48.87018" lon="2.26903">
        <ele>27.28</ele>
        <time>2021-03-24T09:14:02Z</time>
      </trkpt>
      <trkpt lat="48.87019" lon="2.26905">
        <ele>26.99</ele>
        <time>2021-03-24T09:14:04Z</time>
      </trkpt>
      <trkpt lat="48.87027" lon="2.26916">
        <ele>27.26</ele>
        <time>2021-03-24T09:14:17Z</time>
      </trkpt>
      <trkpt lat="48.8702" lon="2.26941">
        <ele>27.12</ele>
        <time>2021-03-24T09:14:38Z</time>
      </trkpt>
      <trkpt lat="48.87015" lon="2.2695">
        <ele>26.89</ele>
        <time>2021-03-24T09:14:46Z</time>
      </trkpt>
      <trkpt lat="48.87009" lon="2.26971">
        <ele>27.23</ele>
        <time>2021-03-24T09:15:01Z</time>
      </trkpt>
      <trkpt lat="48.87" lon="2.26989">
        <ele>27.37</ele>
        <time>2021-03-24T09:15:16Z</time>
      </trkpt>
      <trkpt lat="48.86999" lon="2.26993">
        <ele>27.94</ele>
        <time>2021-03-24T09:15:18Z</time>
      </trkpt>
      <trkpt lat="48.86986" lon="2.26999">
        <ele>27.79</ele>
        <time>2021-03-24T09:15:30Z</time>
      </trkpt>
      <trkpt lat="48.86974" lon="2.26981">
        <ele>27.75</ele>
        <time>2021-03-24T09:15:48Z</time>
      </trkpt>
      <trkpt lat="48.86963" lon="2.26963">
        <ele>28.47</ele>
        <time>2021-03-24T09:16:05Z</time>
      </trkpt>
      <trkpt lat="48.86955" lon="2.26949">
        <ele>28.16</ele>
        <time>2021-03-24T09:16:14Z</time>
      </trkpt>
      <trkpt lat="48.86953" lon="2.26943">
        <ele>28.06</ele>
        <time>2021-03-24T09:16:18Z</time>
      </trkpt>
      <trkpt lat="48.8694" lon="2.26914">
        <ele>28.05</ele>
        <time>2021-03-24T09:16:35Z</time>
      </trkpt>
      <trkpt lat="48.86931" lon="2.26897">
        <ele>27.9</ele>
        <time>2021-03-24T09:16:46Z</time>
      </trkpt>
      <trkpt lat="48.86918" lon="2.26869">
        <ele>27.81</ele>
        <time>2021-03-24T09:17:01Z</time>
      </trkpt>
      <trkpt lat="48.86904" lon="2.26838">
        <ele>27.51</ele>
        <time>2021-03-24T09:17:18Z</time>
      </trkpt>
      <trkpt lat="48.86899" lon="2.26829">
        <ele>27.28</ele>
        <time>2021-03-24T09:17:23Z</time>
      </trkpt>
      <trkpt lat="48.86882" lon="2.26803">
        <ele>27.16</ele>
        <time>2021-03-24T09:17:38Z</time>
      </trkpt>
      <trkpt lat="48.86869" lon="2.2677">
        <ele>27.03</ele>
        <time>2021-03-24T09:17:57Z</time>
      </trkpt>
      <trkpt lat="48.86854" lon="2.26738">
        <ele>27.41</ele>
        <time>2021-03-24T09:18:13Z</time>
      </trkpt>
      <trkpt lat="48.86843" lon="2.26709">
        <ele>27.21</ele>
        <time>2021-03-24T09:18:28Z</time>
      </trkpt>
      <trkpt lat="48.86834" lon="2.26694">
        <ele>27.38</ele>
        <time>2021-03-24T09:18:38Z</time>
      </trkpt>
      <trkpt lat="48.8682" lon="2.26669">
        <ele>27.46</ele>
        <time>2021-03-24T09:18:51Z</time>
      </trkpt>
      <trkpt lat="48.86817" lon="2.26662">
        <ele>26.82</ele>
        <time>2021-03-24T09:18:54Z</time>
      </trkpt>
      <trkpt lat="48.86812" lon="2.26653">
        <ele>26.64</ele>
        <time>2021-03-24T09:18:58Z</time>
      </trkpt>
      <trkpt lat="48.868" lon="2.26626">
        <ele>27</ele>
        <time>2021-03-24T09:19:13Z</time>
      </trkpt>
      <trkpt lat="48.86788" lon="2.26612">
        <ele>26.99</ele>
        <time>2021-03-24T09:19:25Z</time>
      </trkpt>
      <trkpt lat="48.86774" lon="2.26601">
        <ele>26.8</ele>
        <time>2021-03-24T09:19:40Z</time>
      </trkpt>
      <trkpt lat="48.86771" lon="2.266">
        <ele>26.59</ele>
        <time>2021-03-24T09:19:42Z</time>
      </trkpt>
      <trkpt lat="48.86763" lon="2.26597">
        <ele>27.09</ele>
        <time>2021-03-24T09:19:48Z</time>
      </trkpt>
      <trkpt lat="48.86747" lon="2.26588">
        <ele>27.08</ele>
        <time>2021-03-24T09:20:00Z</time>
      </trkpt>
      <trkpt lat="48.8673" lon="2.26574">
        <ele>27.19</ele>
        <time>2021-03-24T09:20:14Z</time>
      </trkpt>
      <trkpt lat="48.86712" lon="2.26561">
        <ele>27.01</ele>
        <time>2021-03-24T09:20:29Z</time>
      </trkpt>
      <trkpt lat="48.86705" lon="2.26551">
        <ele>27.29</ele>
        <time>2021-03-24T09:20:46Z</time>
      </trkpt>
      <trkpt lat="48.86714" lon="2.26539">
        <ele>28.3</ele>
        <time>2021-03-24T09:21:02Z</time>
      </trkpt>
      <trkpt lat="48.86718" lon="2.26523">
        <ele>27.83</ele>
        <time>2021-03-24T09:21:19Z</time>
      </trkpt>
      <trkpt lat="48.86718" lon="2.26522">
        <ele>27.95</ele>
        <time>2021-03-24T09:21:20Z</time>
      </trkpt>
      <trkpt lat="48.86717" lon="2.26506">
        <ele>28.29</ele>
        <time>2021-03-24T09:21:35Z</time>
      </trkpt>
      <trkpt lat="48.86717" lon="2.26503">
        <ele>27.86</ele>
        <time>2021-03-24T09:21:39Z</time>
      </trkpt>
      <trkpt lat="48.86722" lon="2.26484">
        <ele>27.06</ele>
        <time>2021-03-24T09:21:51Z</time>
      </trkpt>
      <trkpt lat="48.86725" lon="2.26471">
        <ele>27.25</ele>
        <time>2021-03-24T09:21:57Z</time>
      </trkpt>
      <trkpt lat="48.86725" lon="2.26467">
        <ele>27.05</ele>
        <time>2021-03-24T09:21:59Z</time>
      </trkpt>
      <trkpt lat="48.8671" lon="2.26444">
        <ele>27.42</ele>
        <time>2021-03-24T09:22:15Z</time>
      </trkpt>
      <trkpt lat="48.86701" lon="2.26439">
        <ele>27.38</ele>
        <time>2021-03-24T09:22:24Z</time>
      </trkpt>
      <trkpt lat="48.86684" lon="2.26425">
        <ele>27.66</ele>
        <time>2021-03-24T09:22:37Z</time>
      </trkpt>
      <trkpt lat="48.86679" lon="2.26418">
        <ele>27.98</ele>
        <time>2021-03-24T09:22:42Z</time>
      </trkpt>
      <trkpt lat="48.8666" lon="2.26392">
        <ele>27.97</ele>
        <time>2021-03-24T09:22:57Z</time>
      </trkpt>
      <trkpt lat="48.8665" lon="2.26374">
        <ele>27.79</ele>
        <time>2021-03-24T09:23:09Z</time>
      </trkpt>
      <trkpt lat="48.86636" lon="2.26352">
        <ele>28.38</ele>
        <time>2021-03-24T09:23:23Z</time>
      </trkpt>
      <trkpt lat="48.86624" lon="2.26338">
        <ele>28.27</ele>
        <time>2021-03-24T09:23:35Z</time>
      </trkpt>
      <trkpt lat="48.86623" lon="2.26337">
        <ele>28.67</ele>
        <time>2021-03-24T09:23:36Z</time>
      </trkpt>
      <trkpt lat="48.8661" lon="2.2632">
        <ele>27.97</ele>
        <time>2021-03-24T09:23:48Z</time>
      </trkpt>
      <trkpt lat="48.86609" lon="2.26318">
        <ele>28.03</ele>
        <time>2021-03-24T09:23:49Z</time>
      </trkpt>
      <trkpt lat="48.86598" lon="2.26304">
        <ele>28.08</ele>
        <time>2021-03-24T09:24:01Z</time>
      </trkpt>
      <trkpt lat="48.86582" lon="2.26292">
        <ele>28.67</ele>
        <time>2021-03-24T09:24:13Z</time>
      </trkpt>
      <trkpt lat="48.86565" lon="2.26291">
        <ele>29.78</ele>
        <time>2021-03-24T09:24:25Z</time>
      </trkpt>
      <trkpt lat="48.86549" lon="2.26293">
        <ele>29.76</ele>
        <time>2021-03-24T09:24:35Z</time>
      </trkpt>
      <trkpt lat="48.86528" lon="2.26299">
        <ele>29.81</ele>
        <time>2021-03-24T09:24:49Z</time>
      </trkpt>
      <trkpt lat="48.86511" lon="2.26295">
        <ele>30.97</ele>
        <time>2021-03-24T09:25:02Z</time>
      </trkpt>
      <trkpt lat="48.86505" lon="2.26294">
        <ele>30.94</ele>
        <time>2021-03-24T09:25:07Z</time>
      </trkpt>
      <trkpt lat="48.86485" lon="2.26286">
        <ele>31.03</ele>
        <time>2021-03-24T09:25:21Z</time>
      </trkpt>
      <trkpt lat="48.86475" lon="2.26279">
        <ele>31.44</ele>
        <time>2021-03-24T09:25:29Z</time>
      </trkpt>
      <trkpt lat="48.86474" lon="2.26278">
        <ele>31.13</ele>
        <time>2021-03-24T09:25:30Z</time>
      </trkpt>
      <trkpt lat="48.86473" lon="2.26277">
        <ele>31.39</ele>
        <time>2021-03-24T09:25:31Z</time>
      </trkpt>
      <trkpt lat="48.86472" lon="2.26276">
        <ele>31.19</ele>
        <time>2021-03-24T09:25:32Z</time>
      </trkpt>
      <trkpt lat="48.8647" lon="2.26275">
        <ele>32.23</ele>
        <time>2021-03-24T09:25:48Z</time>
      </trkpt>
      <trkpt lat="48.86465" lon="2.26269">
        <ele>31.95</ele>
        <time>2021-03-24T09:26:08Z</time>
      </trkpt>
      <trkpt lat="48.86458" lon="2.26261">
        <ele>31.68</ele>
        <time>2021-03-24T09:26:16Z</time>
      </trkpt>
      <trkpt lat="48.86457" lon="2.26259">
        <ele>31.2</ele>
        <time>2021-03-24T09:26:17Z</time>
      </trkpt>
      <trkpt lat="48.86456" lon="2.26258">
        <ele>31.8</ele>
        <time>2021-03-24T09:26:18Z</time>
      </trkpt>
      <trkpt lat="48.86449" lon="2.26246">
        <ele>31.81</ele>
        <time>2021-03-24T09:26:26Z</time>
      </trkpt>
      <trkpt lat="48.86444" lon="2.2624">
        <ele>32.71</ele>
        <time>2021-03-24T09:26:38Z</time>
      </trkpt>
      <trkpt lat="48.8644" lon="2.26237">
        <ele>31.83</ele>
        <time>2021-03-24T09:26:46Z</time>
      </trkpt>
      <trkpt lat="48.86439" lon="2.26236">
        <ele>32.02</ele>
        <time>2021-03-24T09:26:47Z</time>
      </trkpt>
      <trkpt lat="48.86438" lon="2.26235">
        <ele>32.31</ele>
        <time>2021-03-24T09:26:48Z</time>
      </trkpt>
      <trkpt lat="48.86436" lon="2.26234">
        <ele>32.22</ele>
        <time>2021-03-24T09:26:49Z</time>
      </trkpt>
      <trkpt lat="48.86435" lon="2.26232">
        <ele>31.82</ele>
        <time>2021-03-24T09:26:50Z</time>
      </trkpt>
      <trkpt lat="48.86434" lon="2.26231">
        <ele>31.94</ele>
        <time>2021-03-24T09:26:51Z</time>
      </trkpt>
      <trkpt lat="48.86432" lon="2.26229">
        <ele>31.46</ele>
        <time>2021-03-24T09:26:52Z</time>
      </trkpt>
      <trkpt lat="48.86416" lon="2.26212">
        <ele>32.02</ele>
        <time>2021-03-24T09:27:05Z</time>
      </trkpt>
      <trkpt lat="48.86401" lon="2.26198">
        <ele>32.33</ele>
        <time>2021-03-24T09:27:18Z</time>
      </trkpt>
      <trkpt lat="48.864" lon="2.26197">
        <ele>32.62</ele>
        <time>2021-03-24T09:27:19Z</time>
      </trkpt>
      <trkpt lat="48.86399" lon="2.26196">
        <ele>32.9</ele>
        <time>2021-03-24T09:27:20Z</time>
      </trkpt>
      <trkpt lat="48.86397" lon="2.26195">
        <ele>32.13</ele>
        <time>2021-03-24T09:27:21Z</time>
      </trkpt>
      <trkpt lat="48.86396" lon="2.26195">
        <ele>32.49</ele>
        <time>2021-03-24T09:27:22Z</time>
      </trkpt>
      <trkpt lat="48.86371" lon="2.26182">
        <ele>32.81</ele>
        <time>2021-03-24T09:27:39Z</time>
      </trkpt>
      <trkpt lat="48.86354" lon="2.26178">
        <ele>32.12</ele>
        <time>2021-03-24T09:27:52Z</time>
      </trkpt>
      <trkpt lat="48.86337" lon="2.26181">
        <ele>33.21</ele>
        <time>2021-03-24T09:28:06Z</time>
      </trkpt>
      <trkpt lat="48.86322" lon="2.26185">
        <ele>32.96</ele>
        <time>2021-03-24T09:28:19Z</time>
      </trkpt>
      <trkpt lat="48.86302" lon="2.26189">
        <ele>33.75</ele>
        <time>2021-03-24T09:28:35Z</time>
      </trkpt>
      <trkpt lat="48.863" lon="2.26188">
        <ele>33.49</ele>
        <time>2021-03-24T09:28:37Z</time>
      </trkpt>
      <trkpt lat="48.86299" lon="2.26188">
        <ele>33.34</ele>
        <time>2021-03-24T09:28:38Z</time>
      </trkpt>
      <trkpt lat="48.86298" lon="2.26188">
        <ele>32.89</ele>
        <time>2021-03-24T09:28:39Z</time>
      </trkpt>
      <trkpt lat="48.86278" lon="2.26172">
        <ele>33.02</ele>
        <time>2021-03-24T09:28:54Z</time>
      </trkpt>
      <trkpt lat="48.86273" lon="2.26163">
        <ele>33.29</ele>
        <time>2021-03-24T09:29:01Z</time>
      </trkpt>
      <trkpt lat="48.86272" lon="2.26161">
        <ele>32.93</ele>
        <time>2021-03-24T09:29:02Z</time>
      </trkpt>
      <trkpt lat="48.86259" lon="2.26142">
        <ele>33.68</ele>
        <time>2021-03-24T09:29:15Z</time>
      </trkpt>
      <trkpt lat="48.86244" lon="2.26126">
        <ele>34.19</ele>
        <time>2021-03-24T09:29:29Z</time>
      </trkpt>
      <trkpt lat="48.86236" lon="2.26119">
        <ele>34.38</ele>
        <time>2021-03-24T09:29:44Z</time>
      </trkpt>
      <trkpt lat="48.86232" lon="2.26117">
        <ele>34.49</ele>
        <time>2021-03-24T09:30:09Z</time>
      </trkpt>
      <trkpt lat="48.8623" lon="2.26118">
        <ele>34.3</ele>
        <time>2021-03-24T09:30:40Z</time>
      </trkpt>
      <trkpt lat="48.86231" lon="2.26118">
        <ele>34.35</ele>
        <time>2021-03-24T09:31:05Z</time>
      </trkpt>
      <trkpt lat="48.86231" lon="2.26116">
        <ele>33.97</ele>
        <time>2021-03-24T09:31:33Z</time>
      </trkpt>
      <trkpt lat="48.86231" lon="2.261">
        <ele>31.4</ele>
        <time>2021-03-24T09:31:57Z</time>
      </trkpt>
      <trkpt lat="48.8623" lon="2.26087">
        <ele>29.32</ele>
        <time>2021-03-24T09:32:14Z</time>
      </trkpt>
      <trkpt lat="48.86228" lon="2.26087">
        <ele>29.79</ele>
        <time>2021-03-24T09:32:30Z</time>
      </trkpt>
      <trkpt lat="48.86228" lon="2.26086">
        <ele>29.86</ele>
        <time>2021-03-24T09:32:31Z</time>
      </trkpt>
      <trkpt lat="48.86228" lon="2.26084">
        <ele>29.41</ele>
        <time>2021-03-24T09:32:32Z</time>
      </trkpt>
      <trkpt lat="48.86228" lon="2.26081">
        <ele>29.53</ele>
        <time>2021-03-24T09:32:38Z</time>
      </trkpt>
      <trkpt lat="48.86228" lon="2.26079">
        <ele>29.63</ele>
        <time>2021-03-24T09:32:50Z</time>
      </trkpt>
      <trkpt lat="48.86229" lon="2.26083">
        <ele>29.75</ele>
        <time>2021-03-24T09:33:08Z</time>
      </trkpt>
      <trkpt lat="48.86228" lon="2.26092">
        <ele>30.55</ele>
        <time>2021-03-24T09:33:24Z</time>
      </trkpt>
      <trkpt lat="48.86225" lon="2.26104">
        <ele>33.66</ele>
        <time>2021-03-24T09:33:39Z</time>
      </trkpt>
      <trkpt lat="48.86215" lon="2.26109">
        <ele>35.45</ele>
        <time>2021-03-24T09:33:53Z</time>
      </trkpt>
      <trkpt lat="48.86212" lon="2.26097">
        <ele>32.32</ele>
        <time>2021-03-24T09:34:04Z</time>
      </trkpt>
      <trkpt lat="48.86212" lon="2.26096">
        <ele>31.96</ele>
        <time>2021-03-24T09:34:05Z</time>
      </trkpt>
      <trkpt lat="48.86211" lon="2.2609">
        <ele>30.16</ele>
        <time>2021-03-24T09:34:09Z</time>
      </trkpt>
      <trkpt lat="48.86211" lon="2.26088">
        <ele>29.79</ele>
        <time>2021-03-24T09:34:10Z</time>
      </trkpt>
      <trkpt lat="48.8621" lon="2.26086">
        <ele>29.75</ele>
        <time>2021-03-24T09:34:11Z</time>
      </trkpt>
      <trkpt lat="48.86208" lon="2.26088">
        <ele>30.19</ele>
        <time>2021-03-24T09:34:26Z</time>
      </trkpt>
      <trkpt lat="48.86205" lon="2.26089">
        <ele>30.43</ele>
        <time>2021-03-24T09:34:36Z</time>
      </trkpt>
      <trkpt lat="48.86204" lon="2.26089">
        <ele>30.48</ele>
        <time>2021-03-24T09:34:37Z</time>
      </trkpt>
      <trkpt lat="48.86203" lon="2.26089">
        <ele>30.21</ele>
        <time>2021-03-24T09:34:38Z</time>
      </trkpt>
      <trkpt lat="48.86201" lon="2.26088">
        <ele>29.92</ele>
        <time>2021-03-24T09:34:39Z</time>
      </trkpt>
      <trkpt lat="48.86199" lon="2.26087">
        <ele>30.22</ele>
        <time>2021-03-24T09:34:40Z</time>
      </trkpt>
      <trkpt lat="48.86198" lon="2.26086">
        <ele>29.65</ele>
        <time>2021-03-24T09:34:41Z</time>
      </trkpt>
      <trkpt lat="48.86196" lon="2.26087">
        <ele>29.8</ele>
        <time>2021-03-24T09:34:42Z</time>
      </trkpt>
      <trkpt lat="48.86178" lon="2.26076">
        <ele>30.01</ele>
        <time>2021-03-24T09:34:56Z</time>
      </trkpt>
      <trkpt lat="48.86163" lon="2.26057">
        <ele>30.31</ele>
        <time>2021-03-24T09:35:08Z</time>
      </trkpt>
      <trkpt lat="48.86146" lon="2.26038">
        <ele>30.78</ele>
        <time>2021-03-24T09:35:23Z</time>
      </trkpt>
      <trkpt lat="48.8613" lon="2.26023">
        <ele>30.78</ele>
        <time>2021-03-24T09:35:37Z</time>
      </trkpt>
      <trkpt lat="48.86125" lon="2.26019">
        <ele>30.67</ele>
        <time>2021-03-24T09:35:41Z</time>
      </trkpt>
      <trkpt lat="48.86124" lon="2.26018">
        <ele>30.8</ele>
        <time>2021-03-24T09:35:42Z</time>
      </trkpt>
      <trkpt lat="48.86122" lon="2.26017">
        <ele>30.98</ele>
        <time>2021-03-24T09:35:43Z</time>
      </trkpt>
      <trkpt lat="48.86121" lon="2.26017">
        <ele>30.99</ele>
        <time>2021-03-24T09:35:44Z</time>
      </trkpt>
      <trkpt lat="48.8612" lon="2.26016">
        <ele>30.95</ele>
        <time>2021-03-24T09:35:45Z</time>
      </trkpt>
      <trkpt lat="48.86118" lon="2.26015">
        <ele>30.81</ele>
        <time>2021-03-24T09:35:46Z</time>
      </trkpt>
      <trkpt lat="48.86117" lon="2.26015">
        <ele>30.82</ele>
        <time>2021-03-24T09:35:47Z</time>
      </trkpt>
      <trkpt lat="48.86116" lon="2.26014">
        <ele>30.54</ele>
        <time>2021-03-24T09:35:48Z</time>
      </trkpt>
      <trkpt lat="48.86115" lon="2.26012">
        <ele>31.22</ele>
        <time>2021-03-24T09:35:49Z</time>
      </trkpt>
      <trkpt lat="48.86114" lon="2.26011">
        <ele>31.17</ele>
        <time>2021-03-24T09:35:50Z</time>
      </trkpt>
      <trkpt lat="48.86113" lon="2.2601">
        <ele>31.13</ele>
        <time>2021-03-24T09:35:51Z</time>
      </trkpt>
      <trkpt lat="48.86099" lon="2.25999">
        <ele>30.65</ele>
        <time>2021-03-24T09:36:03Z</time>
      </trkpt>
      <trkpt lat="48.86084" lon="2.25988">
        <ele>31.44</ele>
        <time>2021-03-24T09:36:14Z</time>
      </trkpt>
      <trkpt lat="48.86066" lon="2.25977">
        <ele>31.95</ele>
        <time>2021-03-24T09:36:26Z</time>
      </trkpt>
      <trkpt lat="48.86048" lon="2.25971">
        <ele>33.11</ele>
        <time>2021-03-24T09:36:40Z</time>
      </trkpt>
      <trkpt lat="48.86042" lon="2.25972">
        <ele>33.7</ele>
        <time>2021-03-24T09:36:46Z</time>
      </trkpt>
      <trkpt lat="48.86041" lon="2.25971">
        <ele>34.19</ele>
        <time>2021-03-24T09:36:47Z</time>
      </trkpt>
      <trkpt lat="48.86037" lon="2.2597">
        <ele>34.98</ele>
        <time>2021-03-24T09:36:50Z</time>
      </trkpt>
      <trkpt lat="48.86023" lon="2.25969">
        <ele>35.91</ele>
        <time>2021-03-24T09:37:05Z</time>
      </trkpt>
      <trkpt lat="48.86005" lon="2.25969">
        <ele>37.65</ele>
        <time>2021-03-24T09:37:19Z</time>
      </trkpt>
      <trkpt lat="48.85986" lon="2.25963">
        <ele>37.18</ele>
        <time>2021-03-24T09:37:34Z</time>
      </trkpt>
      <trkpt lat="48.85966" lon="2.2594">
        <ele>36.5</ele>
        <time>2021-03-24T09:37:53Z</time>
      </trkpt>
      <trkpt lat="48.85959" lon="2.25934">
        <ele>36.38</ele>
        <time>2021-03-24T09:37:59Z</time>
      </trkpt>
      <trkpt lat="48.85958" lon="2.25933">
        <ele>36.77</ele>
        <time>2021-03-24T09:38:00Z</time>
      </trkpt>
      <trkpt lat="48.8594" lon="2.25926">
        <ele>36.45</ele>
        <time>2021-03-24T09:38:13Z</time>
      </trkpt>
      <trkpt lat="48.85921" lon="2.25916">
        <ele>36.71</ele>
        <time>2021-03-24T09:38:27Z</time>
      </trkpt>
      <trkpt lat="48.85906" lon="2.25914">
        <ele>37.27</ele>
        <time>2021-03-24T09:38:40Z</time>
      </trkpt>
      <trkpt lat="48.8589" lon="2.25903">
        <ele>37.96</ele>
        <time>2021-03-24T09:38:53Z</time>
      </trkpt>
      <trkpt lat="48.85887" lon="2.25899">
        <ele>38.11</ele>
        <time>2021-03-24T09:39:19Z</time>
      </trkpt>
      <trkpt lat="48.85886" lon="2.25897">
        <ele>37.94</ele>
        <time>2021-03-24T09:39:21Z</time>
      </trkpt>
      <trkpt lat="48.85885" lon="2.25896">
        <ele>37.69</ele>
        <time>2021-03-24T09:39:22Z</time>
      </trkpt>
      <trkpt lat="48.85884" lon="2.25895">
        <ele>37.9</ele>
        <time>2021-03-24T09:39:23Z</time>
      </trkpt>
      <trkpt lat="48.85879" lon="2.25888">
        <ele>37.6</ele>
        <time>2021-03-24T09:39:29Z</time>
      </trkpt>
      <trkpt lat="48.85879" lon="2.25887">
        <ele>37.66</ele>
        <time>2021-03-24T09:39:30Z</time>
      </trkpt>
      <trkpt lat="48.85874" lon="2.25871">
        <ele>38</ele>
        <time>2021-03-24T09:39:41Z</time>
      </trkpt>
      <trkpt lat="48.85868" lon="2.25846">
        <ele>38.27</ele>
        <time>2021-03-24T09:39:55Z</time>
      </trkpt>
      <trkpt lat="48.85868" lon="2.25844">
        <ele>38.46</ele>
        <time>2021-03-24T09:39:56Z</time>
      </trkpt>
      <trkpt lat="48.85866" lon="2.25839">
        <ele>38.39</ele>
        <time>2021-03-24T09:40:10Z</time>
      </trkpt>
      <trkpt lat="48.85866" lon="2.25841">
        <ele>38.31</ele>
        <time>2021-03-24T09:40:35Z</time>
      </trkpt>
      <trkpt lat="48.85865" lon="2.25843">
        <ele>38.58</ele>
        <time>2021-03-24T09:41:02Z</time>
      </trkpt>
      <trkpt lat="48.85866" lon="2.25846">
        <ele>37.79</ele>
        <time>2021-03-24T09:41:22Z</time>
      </trkpt>
      <trkpt lat="48.85867" lon="2.25849">
        <ele>38.72</ele>
        <time>2021-03-24T09:41:43Z</time>
      </trkpt>
      <trkpt lat="48.85865" lon="2.25842">
        <ele>38.22</ele>
        <time>2021-03-24T09:42:03Z</time>
      </trkpt>
      <trkpt lat="48.85864" lon="2.25835">
        <ele>38.19</ele>
        <time>2021-03-24T09:42:09Z</time>
      </trkpt>
      <trkpt lat="48.85864" lon="2.25833">
        <ele>38.24</ele>
        <time>2021-03-24T09:42:10Z</time>
      </trkpt>
      <trkpt lat="48.85864" lon="2.25831">
        <ele>38.29</ele>
        <time>2021-03-24T09:42:11Z</time>
      </trkpt>
      <trkpt lat="48.85865" lon="2.2583">
        <ele>38.37</ele>
        <time>2021-03-24T09:42:12Z</time>
      </trkpt>
      <trkpt lat="48.85865" lon="2.25828">
        <ele>38.36</ele>
        <time>2021-03-24T09:42:13Z</time>
      </trkpt>
      <trkpt lat="48.85865" lon="2.25826">
        <ele>38.25</ele>
        <time>2021-03-24T09:42:14Z</time>
      </trkpt>
      <trkpt lat="48.85866" lon="2.25818">
        <ele>38.52</ele>
        <time>2021-03-24T09:42:18Z</time>
      </trkpt>
      <trkpt lat="48.85867" lon="2.25816">
        <ele>38.5</ele>
        <time>2021-03-24T09:42:19Z</time>
      </trkpt>
      <trkpt lat="48.85868" lon="2.25814">
        <ele>38.7</ele>
        <time>2021-03-24T09:42:20Z</time>
      </trkpt>
      <trkpt lat="48.85868" lon="2.25812">
        <ele>38.55</ele>
        <time>2021-03-24T09:42:21Z</time>
      </trkpt>
      <trkpt lat="48.85868" lon="2.2581">
        <ele>38.56</ele>
        <time>2021-03-24T09:42:22Z</time>
      </trkpt>
      <trkpt lat="48.85869" lon="2.25808">
        <ele>38.56</ele>
        <time>2021-03-24T09:42:23Z</time>
      </trkpt>
      <trkpt lat="48.8587" lon="2.25802">
        <ele>38.41</ele>
        <time>2021-03-24T09:42:26Z</time>
      </trkpt>
      <trkpt lat="48.85871" lon="2.25801">
        <ele>38.44</ele>
        <time>2021-03-24T09:42:27Z</time>
      </trkpt>
      <trkpt lat="48.85878" lon="2.25774">
        <ele>38.55</ele>
        <time>2021-03-24T09:42:42Z</time>
      </trkpt>
      <trkpt lat="48.85874" lon="2.2574">
        <ele>38.8</ele>
        <time>2021-03-24T09:42:57Z</time>
      </trkpt>
      <trkpt lat="48.85874" lon="2.25738">
        <ele>38.18</ele>
        <time>2021-03-24T09:42:58Z</time>
      </trkpt>
      <trkpt lat="48.85873" lon="2.25736">
        <ele>38.05</ele>
        <time>2021-03-24T09:43:00Z</time>
      </trkpt>
      <trkpt lat="48.85873" lon="2.25734">
        <ele>37.88</ele>
        <time>2021-03-24T09:43:01Z</time>
      </trkpt>
      <trkpt lat="48.8587" lon="2.25714">
        <ele>37.78</ele>
        <time>2021-03-24T09:43:13Z</time>
      </trkpt>
      <trkpt lat="48.8587" lon="2.25703">
        <ele>37.79</ele>
        <time>2021-03-24T09:43:18Z</time>
      </trkpt>
      <trkpt lat="48.85869" lon="2.25688">
        <ele>37.86</ele>
        <time>2021-03-24T09:43:25Z</time>
      </trkpt>
      <trkpt lat="48.8587" lon="2.25683">
        <ele>37.84</ele>
        <time>2021-03-24T09:43:28Z</time>
      </trkpt>
      <trkpt lat="48.8587" lon="2.25681">
        <ele>37.63</ele>
        <time>2021-03-24T09:43:29Z</time>
      </trkpt>
      <trkpt lat="48.8587" lon="2.25678">
        <ele>37.66</ele>
        <time>2021-03-24T09:43:31Z</time>
      </trkpt>
      <trkpt lat="48.8587" lon="2.25675">
        <ele>37.67</ele>
        <time>2021-03-24T09:43:32Z</time>
      </trkpt>
      <trkpt lat="48.85869" lon="2.25672">
        <ele>38.18</ele>
        <time>2021-03-24T09:43:33Z</time>
      </trkpt>
      <trkpt lat="48.85866" lon="2.25642">
        <ele>37.69</ele>
        <time>2021-03-24T09:43:49Z</time>
      </trkpt>
      <trkpt lat="48.85864" lon="2.25609">
        <ele>37.63</ele>
        <time>2021-03-24T09:44:05Z</time>
      </trkpt>
      <trkpt lat="48.85864" lon="2.25601">
        <ele>37.73</ele>
        <time>2021-03-24T09:44:08Z</time>
      </trkpt>
      <trkpt lat="48.85858" lon="2.25576">
        <ele>37.3</ele>
        <time>2021-03-24T09:44:22Z</time>
      </trkpt>
      <trkpt lat="48.85854" lon="2.2554">
        <ele>37.41</ele>
        <time>2021-03-24T09:44:42Z</time>
      </trkpt>
      <trkpt lat="48.85849" lon="2.2552">
        <ele>36.93</ele>
        <time>2021-03-24T09:44:49Z</time>
      </trkpt>
      <trkpt lat="48.85846" lon="2.25495">
        <ele>38.22</ele>
        <time>2021-03-24T09:45:01Z</time>
      </trkpt>
      <trkpt lat="48.85844" lon="2.25476">
        <ele>37.58</ele>
        <time>2021-03-24T09:45:13Z</time>
      </trkpt>
      <trkpt lat="48.85842" lon="2.25471">
        <ele>36.99</ele>
        <time>2021-03-24T09:45:18Z</time>
      </trkpt>
      <trkpt lat="48.85841" lon="2.25471">
        <ele>37.52</ele>
        <time>2021-03-24T09:45:19Z</time>
      </trkpt>
      <trkpt lat="48.85851" lon="2.25464">
        <ele>37.09</ele>
        <time>2021-03-24T09:45:39Z</time>
      </trkpt>
      <trkpt lat="48.85871" lon="2.25457">
        <ele>37.27</ele>
        <time>2021-03-24T09:45:57Z</time>
      </trkpt>
      <trkpt lat="48.85883" lon="2.2545">
        <ele>37.1</ele>
        <time>2021-03-24T09:46:07Z</time>
      </trkpt>
      <trkpt lat="48.85893" lon="2.25435">
        <ele>36.7</ele>
        <time>2021-03-24T09:46:21Z</time>
      </trkpt>
      <trkpt lat="48.85887" lon="2.25415">
        <ele>36.9</ele>
        <time>2021-03-24T09:46:43Z</time>
      </trkpt>
      <trkpt lat="48.85888" lon="2.2539">
        <ele>36.55</ele>
        <time>2021-03-24T09:46:56Z</time>
      </trkpt>
      <trkpt lat="48.85887" lon="2.25386">
        <ele>36.68</ele>
        <time>2021-03-24T09:46:58Z</time>
      </trkpt>
      <trkpt lat="48.85886" lon="2.25374">
        <ele>36.52</ele>
        <time>2021-03-24T09:47:04Z</time>
      </trkpt>
      <trkpt lat="48.85886" lon="2.25368">
        <ele>36.32</ele>
        <time>2021-03-24T09:47:07Z</time>
      </trkpt>
      <trkpt lat="48.85884" lon="2.25362">
        <ele>36.31</ele>
        <time>2021-03-24T09:47:11Z</time>
      </trkpt>
      <trkpt lat="48.85882" lon="2.25347">
        <ele>36.37</ele>
        <time>2021-03-24T09:47:20Z</time>
      </trkpt>
      <trkpt lat="48.8588" lon="2.25321">
        <ele>36.7</ele>
        <time>2021-03-24T09:47:32Z</time>
      </trkpt>
      <trkpt lat="48.85879" lon="2.25298">
        <ele>35.99</ele>
        <time>2021-03-24T09:47:47Z</time>
      </trkpt>
      <trkpt lat="48.85881" lon="2.25292">
        <ele>36.21</ele>
        <time>2021-03-24T09:47:51Z</time>
      </trkpt>
      <trkpt lat="48.85881" lon="2.2526">
        <ele>36.28</ele>
        <time>2021-03-24T09:48:08Z</time>
      </trkpt>
      <trkpt lat="48.85889" lon="2.25228">
        <ele>35.79</ele>
        <time>2021-03-24T09:48:24Z</time>
      </trkpt>
      <trkpt lat="48.8589" lon="2.25226">
        <ele>35.88</ele>
        <time>2021-03-24T09:48:25Z</time>
      </trkpt>
      <trkpt lat="48.85893" lon="2.25217">
        <ele>36.23</ele>
        <time>2021-03-24T09:48:29Z</time>
      </trkpt>
      <trkpt lat="48.85895" lon="2.25198">
        <ele>35.94</ele>
        <time>2021-03-24T09:48:36Z</time>
      </trkpt>
      <trkpt lat="48.85905" lon="2.25181">
        <ele>36.09</ele>
        <time>2021-03-24T09:48:48Z</time>
      </trkpt>
      <trkpt lat="48.85917" lon="2.25176">
        <ele>35.94</ele>
        <time>2021-03-24T09:48:58Z</time>
      </trkpt>
      <trkpt lat="48.85931" lon="2.25171">
        <ele>35.01</ele>
        <time>2021-03-24T09:49:08Z</time>
      </trkpt>
      <trkpt lat="48.85938" lon="2.25173">
        <ele>35.51</ele>
        <time>2021-03-24T09:49:12Z</time>
      </trkpt>
      <trkpt lat="48.85957" lon="2.25165">
        <ele>35.66</ele>
        <time>2021-03-24T09:49:25Z</time>
      </trkpt>
      <trkpt lat="48.85959" lon="2.25164">
        <ele>35.71</ele>
        <time>2021-03-24T09:49:26Z</time>
      </trkpt>
      <trkpt lat="48.85978" lon="2.25151">
        <ele>36.08</ele>
        <time>2021-03-24T09:49:40Z</time>
      </trkpt>
      <trkpt lat="48.85987" lon="2.25142">
        <ele>35.63</ele>
        <time>2021-03-24T09:49:47Z</time>
      </trkpt>
      <trkpt lat="48.86003" lon="2.2513">
        <ele>36.83</ele>
        <time>2021-03-24T09:49:59Z</time>
      </trkpt>
      <trkpt lat="48.86008" lon="2.25126">
        <ele>35.97</ele>
        <time>2021-03-24T09:50:02Z</time>
      </trkpt>
      <trkpt lat="48.86032" lon="2.25102">
        <ele>35.63</ele>
        <time>2021-03-24T09:50:19Z</time>
      </trkpt>
      <trkpt lat="48.86035" lon="2.25098">
        <ele>35.86</ele>
        <time>2021-03-24T09:50:22Z</time>
      </trkpt>
      <trkpt lat="48.86042" lon="2.25092">
        <ele>35.58</ele>
        <time>2021-03-24T09:50:26Z</time>
      </trkpt>
      <trkpt lat="48.86046" lon="2.25084">
        <ele>35.85</ele>
        <time>2021-03-24T09:50:30Z</time>
      </trkpt>
      <trkpt lat="48.86048" lon="2.25081">
        <ele>35.34</ele>
        <time>2021-03-24T09:50:32Z</time>
      </trkpt>
      <trkpt lat="48.86066" lon="2.25052">
        <ele>35.47</ele>
        <time>2021-03-24T09:50:45Z</time>
      </trkpt>
      <trkpt lat="48.86084" lon="2.25025">
        <ele>36.19</ele>
        <time>2021-03-24T09:51:00Z</time>
      </trkpt>
      <trkpt lat="48.86086" lon="2.25021">
        <ele>35.99</ele>
        <time>2021-03-24T09:51:03Z</time>
      </trkpt>
      <trkpt lat="48.86088" lon="2.25016">
        <ele>36.18</ele>
        <time>2021-03-24T09:51:06Z</time>
      </trkpt>
      <trkpt lat="48.86093" lon="2.25002">
        <ele>36.46</ele>
        <time>2021-03-24T09:51:15Z</time>
      </trkpt>
      <trkpt lat="48.86099" lon="2.24987">
        <ele>35.75</ele>
        <time>2021-03-24T09:51:23Z</time>
      </trkpt>
      <trkpt lat="48.86105" lon="2.2497">
        <ele>35.69</ele>
        <time>2021-03-24T09:51:31Z</time>
      </trkpt>
      <trkpt lat="48.86113" lon="2.24949">
        <ele>35.63</ele>
        <time>2021-03-24T09:51:42Z</time>
      </trkpt>
      <trkpt lat="48.86116" lon="2.24939">
        <ele>36.03</ele>
        <time>2021-03-24T09:51:48Z</time>
      </trkpt>
      <trkpt lat="48.86118" lon="2.24931">
        <ele>36.36</ele>
        <time>2021-03-24T09:51:52Z</time>
      </trkpt>
      <trkpt lat="48.86123" lon="2.24924">
        <ele>36.03</ele>
        <time>2021-03-24T09:51:56Z</time>
      </trkpt>
      <trkpt lat="48.86125" lon="2.2492">
        <ele>36.11</ele>
        <time>2021-03-24T09:51:58Z</time>
      </trkpt>
      <trkpt lat="48.86128" lon="2.2491">
        <ele>35.77</ele>
        <time>2021-03-24T09:52:03Z</time>
      </trkpt>
      <trkpt lat="48.86135" lon="2.24889">
        <ele>35.47</ele>
        <time>2021-03-24T09:52:15Z</time>
      </trkpt>
      <trkpt lat="48.86136" lon="2.24883">
        <ele>35.32</ele>
        <time>2021-03-24T09:52:18Z</time>
      </trkpt>
      <trkpt lat="48.86138" lon="2.24869">
        <ele>35.31</ele>
        <time>2021-03-24T09:52:24Z</time>
      </trkpt>
      <trkpt lat="48.86148" lon="2.24842">
        <ele>35.07</ele>
        <time>2021-03-24T09:52:40Z</time>
      </trkpt>
      <trkpt lat="48.86155" lon="2.2481">
        <ele>34.44</ele>
        <time>2021-03-24T09:52:54Z</time>
      </trkpt>
      <trkpt lat="48.86164" lon="2.24778">
        <ele>34.3</ele>
        <time>2021-03-24T09:53:10Z</time>
      </trkpt>
      <trkpt lat="48.86172" lon="2.24745">
        <ele>34.14</ele>
        <time>2021-03-24T09:53:25Z</time>
      </trkpt>
      <trkpt lat="48.86179" lon="2.24724">
        <ele>34.13</ele>
        <time>2021-03-24T09:53:39Z</time>
      </trkpt>
      <trkpt lat="48.86181" lon="2.24715">
        <ele>34.46</ele>
        <time>2021-03-24T09:53:57Z</time>
      </trkpt>
      <trkpt lat="48.86182" lon="2.24709">
        <ele>34.49</ele>
        <time>2021-03-24T09:54:18Z</time>
      </trkpt>
      <trkpt lat="48.86183" lon="2.24707">
        <ele>34.48</ele>
        <time>2021-03-24T09:54:21Z</time>
      </trkpt>
      <trkpt lat="48.86189" lon="2.24685">
        <ele>33.42</ele>
        <time>2021-03-24T09:54:34Z</time>
      </trkpt>
      <trkpt lat="48.86198" lon="2.24665">
        <ele>33.29</ele>
        <time>2021-03-24T09:54:48Z</time>
      </trkpt>
      <trkpt lat="48.86206" lon="2.24641">
        <ele>32.12</ele>
        <time>2021-03-24T09:55:02Z</time>
      </trkpt>
      <trkpt lat="48.86216" lon="2.24607">
        <ele>32.09</ele>
        <time>2021-03-24T09:55:18Z</time>
      </trkpt>
      <trkpt lat="48.86222" lon="2.24582">
        <ele>31.74</ele>
        <time>2021-03-24T09:55:30Z</time>
      </trkpt>
      <trkpt lat="48.86228" lon="2.24567">
        <ele>31.72</ele>
        <time>2021-03-24T09:55:37Z</time>
      </trkpt>
      <trkpt lat="48.8624" lon="2.24538">
        <ele>30</ele>
        <time>2021-03-24T09:55:54Z</time>
      </trkpt>
      <trkpt lat="48.86246" lon="2.24526">
        <ele>29.67</ele>
        <time>2021-03-24T09:56:00Z</time>
      </trkpt>
      <trkpt lat="48.86248" lon="2.24519">
        <ele>29.29</ele>
        <time>2021-03-24T09:56:03Z</time>
      </trkpt>
      <trkpt lat="48.86257" lon="2.24505">
        <ele>29.35</ele>
        <time>2021-03-24T09:56:10Z</time>
      </trkpt>
      <trkpt lat="48.8626" lon="2.24494">
        <ele>28.96</ele>
        <time>2021-03-24T09:56:14Z</time>
      </trkpt>
      <trkpt lat="48.86268" lon="2.24471">
        <ele>28.67</ele>
        <time>2021-03-24T09:56:26Z</time>
      </trkpt>
      <trkpt lat="48.86274" lon="2.24444">
        <ele>28.33</ele>
        <time>2021-03-24T09:56:41Z</time>
      </trkpt>
      <trkpt lat="48.86268" lon="2.24421">
        <ele>27.23</ele>
        <time>2021-03-24T09:56:58Z</time>
      </trkpt>
      <trkpt lat="48.86268" lon="2.24412">
        <ele>27.09</ele>
        <time>2021-03-24T09:57:02Z</time>
      </trkpt>
      <trkpt lat="48.86259" lon="2.24393">
        <ele>27.93</ele>
        <time>2021-03-24T09:57:13Z</time>
      </trkpt>
      <trkpt lat="48.86245" lon="2.24369">
        <ele>28.23</ele>
        <time>2021-03-24T09:57:26Z</time>
      </trkpt>
      <trkpt lat="48.86244" lon="2.24342">
        <ele>27.45</ele>
        <time>2021-03-24T09:57:37Z</time>
      </trkpt>
      <trkpt lat="48.86244" lon="2.24338">
        <ele>27.97</ele>
        <time>2021-03-24T09:57:38Z</time>
      </trkpt>
      <trkpt lat="48.86244" lon="2.24327">
        <ele>28.21</ele>
        <time>2021-03-24T09:57:42Z</time>
      </trkpt>
      <trkpt lat="48.86255" lon="2.24305">
        <ele>27.7</ele>
        <time>2021-03-24T09:57:55Z</time>
      </trkpt>
      <trkpt lat="48.86264" lon="2.24295">
        <ele>28.14</ele>
        <time>2021-03-24T09:58:01Z</time>
      </trkpt>
      <trkpt lat="48.86272" lon="2.24268">
        <ele>27.71</ele>
        <time>2021-03-24T09:58:14Z</time>
      </trkpt>
      <trkpt lat="48.86279" lon="2.24244">
        <ele>28.73</ele>
        <time>2021-03-24T09:58:26Z</time>
      </trkpt>
      <trkpt lat="48.86278" lon="2.24241">
        <ele>28.51</ele>
        <time>2021-03-24T09:58:39Z</time>
      </trkpt>
      <trkpt lat="48.86277" lon="2.24239">
        <ele>28.58</ele>
        <time>2021-03-24T09:59:06Z</time>
      </trkpt>
      <trkpt lat="48.86276" lon="2.24234">
        <ele>29.16</ele>
        <time>2021-03-24T09:59:35Z</time>
      </trkpt>
      <trkpt lat="48.86275" lon="2.2424">
        <ele>28.97</ele>
        <time>2021-03-24T10:00:00Z</time>
      </trkpt>
      <trkpt lat="48.8628" lon="2.24231">
        <ele>29.09</ele>
        <time>2021-03-24T10:00:17Z</time>
      </trkpt>
      <trkpt lat="48.86281" lon="2.24228">
        <ele>28.89</ele>
        <time>2021-03-24T10:00:19Z</time>
      </trkpt>
      <trkpt lat="48.86284" lon="2.2422">
        <ele>29.4</ele>
        <time>2021-03-24T10:00:24Z</time>
      </trkpt>
      <trkpt lat="48.86294" lon="2.24198">
        <ele>29.03</ele>
        <time>2021-03-24T10:00:38Z</time>
      </trkpt>
      <trkpt lat="48.86304" lon="2.2418">
        <ele>28.88</ele>
        <time>2021-03-24T10:00:48Z</time>
      </trkpt>
      <trkpt lat="48.86311" lon="2.24161">
        <ele>30.55</ele>
        <time>2021-03-24T10:01:01Z</time>
      </trkpt>
      <trkpt lat="48.86323" lon="2.24138">
        <ele>32.76</ele>
        <time>2021-03-24T10:01:19Z</time>
      </trkpt>
      <trkpt lat="48.86325" lon="2.24136">
        <ele>32.89</ele>
        <time>2021-03-24T10:01:21Z</time>
      </trkpt>
      <trkpt lat="48.86332" lon="2.24137">
        <ele>35.16</ele>
        <time>2021-03-24T10:01:33Z</time>
      </trkpt>
      <trkpt lat="48.86344" lon="2.24139">
        <ele>34.57</ele>
        <time>2021-03-24T10:01:52Z</time>
      </trkpt>
      <trkpt lat="48.86344" lon="2.24135">
        <ele>34.65</ele>
        <time>2021-03-24T10:02:20Z</time>
      </trkpt>
      <trkpt lat="48.86347" lon="2.24135">
        <ele>33.91</ele>
        <time>2021-03-24T10:02:42Z</time>
      </trkpt>
      <trkpt lat="48.8635" lon="2.24131">
        <ele>32.24</ele>
        <time>2021-03-24T10:03:08Z</time>
      </trkpt>
      <trkpt lat="48.86351" lon="2.24125">
        <ele>29.01</ele>
        <time>2021-03-24T10:03:23Z</time>
      </trkpt>
      <trkpt lat="48.86352" lon="2.24125">
        <ele>28.78</ele>
        <time>2021-03-24T10:03:24Z</time>
      </trkpt>
      <trkpt lat="48.86358" lon="2.24125">
        <ele>27.12</ele>
        <time>2021-03-24T10:03:45Z</time>
      </trkpt>
      <trkpt lat="48.86366" lon="2.24124">
        <ele>24.71</ele>
        <time>2021-03-24T10:04:07Z</time>
      </trkpt>
      <trkpt lat="48.8638" lon="2.24133">
        <ele>22.66</ele>
        <time>2021-03-24T10:04:39Z</time>
      </trkpt>
      <trkpt lat="48.86374" lon="2.24139">
        <ele>21.71</ele>
        <time>2021-03-24T10:04:53Z</time>
      </trkpt>
      <trkpt lat="48.86347" lon="2.24083">
        <ele>22.37</ele>
        <time>2021-03-24T10:05:10Z</time>
      </trkpt>
      <trkpt lat="48.86348" lon="2.24079">
        <ele>22.39</ele>
        <time>2021-03-24T10:05:13Z</time>
      </trkpt>
      <trkpt lat="48.86353" lon="2.24063">
        <ele>22.32</ele>
        <time>2021-03-24T10:05:25Z</time>
      </trkpt>
      <trkpt lat="48.86356" lon="2.24065">
        <ele>22.03</ele>
        <time>2021-03-24T10:05:35Z</time>
      </trkpt>
      <trkpt lat="48.86356" lon="2.24064">
        <ele>21.82</ele>
        <time>2021-03-24T10:05:36Z</time>
      </trkpt>
      <trkpt lat="48.86357" lon="2.2406">
        <ele>22.38</ele>
        <time>2021-03-24T10:05:38Z</time>
      </trkpt>
      <trkpt lat="48.86358" lon="2.24055">
        <ele>22.25</ele>
        <time>2021-03-24T10:05:42Z</time>
      </trkpt>
      <trkpt lat="48.86359" lon="2.24056">
        <ele>22.15</ele>
        <time>2021-03-24T10:05:57Z</time>
      </trkpt>
      <trkpt lat="48.86358" lon="2.24057">
        <ele>22.49</ele>
        <time>2021-03-24T10:06:10Z</time>
      </trkpt>
      <trkpt lat="48.86361" lon="2.24068">
        <ele>23.18</ele>
        <time>2021-03-24T10:06:36Z</time>
      </trkpt>
      <trkpt lat="48.86359" lon="2.24065">
        <ele>23.08</ele>
        <time>2021-03-24T10:06:39Z</time>
      </trkpt>
      <trkpt lat="48.86356" lon="2.24068">
        <ele>23.1</ele>
        <time>2021-03-24T10:06:49Z</time>
      </trkpt>
      <trkpt lat="48.86359" lon="2.24077">
        <ele>23.24</ele>
        <time>2021-03-24T10:07:30Z</time>
      </trkpt>
      <trkpt lat="48.86355" lon="2.24081">
        <ele>23.57</ele>
        <time>2021-03-24T10:07:46Z</time>
      </trkpt>
      <trkpt lat="48.86355" lon="2.24079">
        <ele>23.8</ele>
        <time>2021-03-24T10:08:00Z</time>
      </trkpt>
      <trkpt lat="48.86355" lon="2.24075">
        <ele>23.81</ele>
        <time>2021-03-24T10:08:02Z</time>
      </trkpt>
      <trkpt lat="48.86354" lon="2.24077">
        <ele>23.95</ele>
        <time>2021-03-24T10:08:11Z</time>
      </trkpt>
      <trkpt lat="48.86349" lon="2.24077">
        <ele>23.95</ele>
        <time>2021-03-24T10:08:27Z</time>
      </trkpt>
      <trkpt lat="48.86348" lon="2.24074">
        <ele>24.11</ele>
        <time>2021-03-24T10:08:29Z</time>
      </trkpt>
      <trkpt lat="48.86323" lon="2.24092">
        <ele>25.91</ele>
        <time>2021-03-24T10:08:56Z</time>
      </trkpt>
      <trkpt lat="48.8632" lon="2.24088">
        <ele>26.58</ele>
        <time>2021-03-24T10:08:57Z</time>
      </trkpt>
      <trkpt lat="48.86319" lon="2.24071">
        <ele>26.41</ele>
        <time>2021-03-24T10:09:10Z</time>
      </trkpt>
      <trkpt lat="48.86319" lon="2.2407">
        <ele>26.58</ele>
        <time>2021-03-24T10:09:11Z</time>
      </trkpt>
      <trkpt lat="48.86331" lon="2.24055">
        <ele>24.96</ele>
        <time>2021-03-24T10:09:26Z</time>
      </trkpt>
      <trkpt lat="48.86333" lon="2.24052">
        <ele>25.61</ele>
        <time>2021-03-24T10:09:29Z</time>
      </trkpt>
      <trkpt lat="48.86334" lon="2.2405">
        <ele>25.81</ele>
        <time>2021-03-24T10:09:30Z</time>
      </trkpt>
      <trkpt lat="48.86346" lon="2.24034">
        <ele>25.44</ele>
        <time>2021-03-24T10:09:41Z</time>
      </trkpt>
      <trkpt lat="48.86347" lon="2.24033">
        <ele>25.32</ele>
        <time>2021-03-24T10:09:42Z</time>
      </trkpt>
      <trkpt lat="48.86351" lon="2.24029">
        <ele>25.37</ele>
        <time>2021-03-24T10:09:45Z</time>
      </trkpt>
      <trkpt lat="48.86356" lon="2.24029">
        <ele>25.1</ele>
        <time>2021-03-24T10:09:49Z</time>
      </trkpt>
      <trkpt lat="48.86363" lon="2.24032">
        <ele>25.07</ele>
        <time>2021-03-24T10:09:56Z</time>
      </trkpt>
      <trkpt lat="48.86365" lon="2.24032">
        <ele>25.08</ele>
        <time>2021-03-24T10:09:57Z</time>
      </trkpt>
      <trkpt lat="48.86366" lon="2.24033">
        <ele>25.15</ele>
        <time>2021-03-24T10:09:58Z</time>
      </trkpt>
      <trkpt lat="48.86367" lon="2.24035">
        <ele>25.19</ele>
        <time>2021-03-24T10:10:00Z</time>
      </trkpt>
      <trkpt lat="48.86374" lon="2.24037">
        <ele>25.24</ele>
        <time>2021-03-24T10:10:09Z</time>
      </trkpt>
      <trkpt lat="48.86375" lon="2.24036">
        <ele>25.86</ele>
        <time>2021-03-24T10:10:10Z</time>
      </trkpt>
      <trkpt lat="48.86376" lon="2.24035">
        <ele>25.35</ele>
        <time>2021-03-24T10:10:11Z</time>
      </trkpt>
      <trkpt lat="48.86378" lon="2.24033">
        <ele>25.36</ele>
        <time>2021-03-24T10:10:12Z</time>
      </trkpt>
      <trkpt lat="48.8638" lon="2.24032">
        <ele>25.95</ele>
        <time>2021-03-24T10:10:13Z</time>
      </trkpt>
      <trkpt lat="48.86391" lon="2.24022">
        <ele>25.83</ele>
        <time>2021-03-24T10:10:23Z</time>
      </trkpt>
      <trkpt lat="48.86394" lon="2.24021">
        <ele>25.7</ele>
        <time>2021-03-24T10:10:40Z</time>
      </trkpt>
      <trkpt lat="48.86393" lon="2.24022">
        <ele>26.29</ele>
        <time>2021-03-24T10:11:05Z</time>
      </trkpt>
      <trkpt lat="48.8639" lon="2.2403">
        <ele>26.05</ele>
        <time>2021-03-24T10:11:28Z</time>
      </trkpt>
      <trkpt lat="48.86391" lon="2.24031">
        <ele>26.33</ele>
        <time>2021-03-24T10:11:29Z</time>
      </trkpt>
      <trkpt lat="48.86399" lon="2.24043">
        <ele>26.07</ele>
        <time>2021-03-24T10:11:36Z</time>
      </trkpt>
      <trkpt lat="48.86401" lon="2.24044">
        <ele>26.17</ele>
        <time>2021-03-24T10:11:37Z</time>
      </trkpt>
      <trkpt lat="48.86402" lon="2.24045">
        <ele>26.2</ele>
        <time>2021-03-24T10:11:38Z</time>
      </trkpt>
      <trkpt lat="48.86404" lon="2.24047">
        <ele>26.81</ele>
        <time>2021-03-24T10:11:39Z</time>
      </trkpt>
      <trkpt lat="48.86406" lon="2.24048">
        <ele>26.38</ele>
        <time>2021-03-24T10:11:40Z</time>
      </trkpt>
      <trkpt lat="48.86422" lon="2.24068">
        <ele>26.87</ele>
        <time>2021-03-24T10:11:54Z</time>
      </trkpt>
      <trkpt lat="48.86433" lon="2.24082">
        <ele>27.73</ele>
        <time>2021-03-24T10:12:04Z</time>
      </trkpt>
      <trkpt lat="48.86442" lon="2.2409">
        <ele>28.38</ele>
        <time>2021-03-24T10:12:14Z</time>
      </trkpt>
      <trkpt lat="48.86443" lon="2.2409">
        <ele>28.31</ele>
        <time>2021-03-24T10:12:15Z</time>
      </trkpt>
      <trkpt lat="48.86445" lon="2.24092">
        <ele>28.8</ele>
        <time>2021-03-24T10:12:17Z</time>
      </trkpt>
      <trkpt lat="48.86451" lon="2.24096">
        <ele>28.61</ele>
        <time>2021-03-24T10:12:27Z</time>
      </trkpt>
      <trkpt lat="48.86453" lon="2.241">
        <ele>28.2</ele>
        <time>2021-03-24T10:12:30Z</time>
      </trkpt>
      <trkpt lat="48.86454" lon="2.24101">
        <ele>28.6</ele>
        <time>2021-03-24T10:12:31Z</time>
      </trkpt>
      <trkpt lat="48.86455" lon="2.24102">
        <ele>28.6</ele>
        <time>2021-03-24T10:12:32Z</time>
      </trkpt>
      <trkpt lat="48.86457" lon="2.24102">
        <ele>28.86</ele>
        <time>2021-03-24T10:12:33Z</time>
      </trkpt>
      <trkpt lat="48.86458" lon="2.24103">
        <ele>28.87</ele>
        <time>2021-03-24T10:12:34Z</time>
      </trkpt>
      <trkpt lat="48.86459" lon="2.24105">
        <ele>28.77</ele>
        <time>2021-03-24T10:12:35Z</time>
      </trkpt>
      <trkpt lat="48.8646" lon="2.24106">
        <ele>29.07</ele>
        <time>2021-03-24T10:12:36Z</time>
      </trkpt>
      <trkpt lat="48.86462" lon="2.24107">
        <ele>28.91</ele>
        <time>2021-03-24T10:12:37Z</time>
      </trkpt>
      <trkpt lat="48.86468" lon="2.2412">
        <ele>28.85</ele>
        <time>2021-03-24T10:12:47Z</time>
      </trkpt>
      <trkpt lat="48.8647" lon="2.24121">
        <ele>28.79</ele>
        <time>2021-03-24T10:12:48Z</time>
      </trkpt>
      <trkpt lat="48.86471" lon="2.24123">
        <ele>28.89</ele>
        <time>2021-03-24T10:12:49Z</time>
      </trkpt>
      <trkpt lat="48.86488" lon="2.24134">
        <ele>30.45</ele>
        <time>2021-03-24T10:13:03Z</time>
      </trkpt>
      <trkpt lat="48.86503" lon="2.2414">
        <ele>29.37</ele>
        <time>2021-03-24T10:13:14Z</time>
      </trkpt>
      <trkpt lat="48.86508" lon="2.24145">
        <ele>28.95</ele>
        <time>2021-03-24T10:13:19Z</time>
      </trkpt>
      <trkpt lat="48.86518" lon="2.24149">
        <ele>28.85</ele>
        <time>2021-03-24T10:13:25Z</time>
      </trkpt>
      <trkpt lat="48.8652" lon="2.24152">
        <ele>28.49</ele>
        <time>2021-03-24T10:13:27Z</time>
      </trkpt>
      <trkpt lat="48.86538" lon="2.24159">
        <ele>27.84</ele>
        <time>2021-03-24T10:13:39Z</time>
      </trkpt>
      <trkpt lat="48.86561" lon="2.24172">
        <ele>27.25</ele>
        <time>2021-03-24T10:13:58Z</time>
      </trkpt>
      <trkpt lat="48.86584" lon="2.2419">
        <ele>26.16</ele>
        <time>2021-03-24T10:14:16Z</time>
      </trkpt>
      <trkpt lat="48.86593" lon="2.24198">
        <ele>24.69</ele>
        <time>2021-03-24T10:14:33Z</time>
      </trkpt>
      <trkpt lat="48.86596" lon="2.24194">
        <ele>24.15</ele>
        <time>2021-03-24T10:14:36Z</time>
      </trkpt>
      <trkpt lat="48.86597" lon="2.24191">
        <ele>24.06</ele>
        <time>2021-03-24T10:14:38Z</time>
      </trkpt>
      <trkpt lat="48.86597" lon="2.2419">
        <ele>24.59</ele>
        <time>2021-03-24T10:14:39Z</time>
      </trkpt>
      <trkpt lat="48.86598" lon="2.24189">
        <ele>24.21</ele>
        <time>2021-03-24T10:14:40Z</time>
      </trkpt>
      <trkpt lat="48.866" lon="2.24184">
        <ele>24.46</ele>
        <time>2021-03-24T10:14:43Z</time>
      </trkpt>
      <trkpt lat="48.86601" lon="2.24182">
        <ele>24.1</ele>
        <time>2021-03-24T10:14:44Z</time>
      </trkpt>
      <trkpt lat="48.86623" lon="2.24173">
        <ele>23.16</ele>
        <time>2021-03-24T10:15:00Z</time>
      </trkpt>
      <trkpt lat="48.86623" lon="2.24171">
        <ele>22.89</ele>
        <time>2021-03-24T10:15:01Z</time>
      </trkpt>
      <trkpt lat="48.86625" lon="2.24169">
        <ele>22.87</ele>
        <time>2021-03-24T10:15:02Z</time>
      </trkpt>
      <trkpt lat="48.86626" lon="2.24166">
        <ele>23.15</ele>
        <time>2021-03-24T10:15:03Z</time>
      </trkpt>
      <trkpt lat="48.86627" lon="2.24163">
        <ele>23.34</ele>
        <time>2021-03-24T10:15:04Z</time>
      </trkpt>
      <trkpt lat="48.86629" lon="2.2416">
        <ele>23.19</ele>
        <time>2021-03-24T10:15:05Z</time>
      </trkpt>
      <trkpt lat="48.86634" lon="2.24156">
        <ele>23.41</ele>
        <time>2021-03-24T10:15:18Z</time>
      </trkpt>
      <trkpt lat="48.86638" lon="2.24155">
        <ele>22.72</ele>
        <time>2021-03-24T10:15:22Z</time>
      </trkpt>
      <trkpt lat="48.86639" lon="2.24156">
        <ele>22.62</ele>
        <time>2021-03-24T10:15:23Z</time>
      </trkpt>
      <trkpt lat="48.8664" lon="2.24156">
        <ele>23.73</ele>
        <time>2021-03-24T10:15:24Z</time>
      </trkpt>
      <trkpt lat="48.86641" lon="2.24157">
        <ele>23.36</ele>
        <time>2021-03-24T10:15:25Z</time>
      </trkpt>
      <trkpt lat="48.86642" lon="2.24158">
        <ele>22.39</ele>
        <time>2021-03-24T10:15:26Z</time>
      </trkpt>
      <trkpt lat="48.86643" lon="2.24159">
        <ele>23.24</ele>
        <time>2021-03-24T10:15:27Z</time>
      </trkpt>
      <trkpt lat="48.86644" lon="2.2416">
        <ele>22.98</ele>
        <time>2021-03-24T10:15:28Z</time>
      </trkpt>
      <trkpt lat="48.86645" lon="2.24161">
        <ele>22.44</ele>
        <time>2021-03-24T10:15:29Z</time>
      </trkpt>
      <trkpt lat="48.86646" lon="2.24163">
        <ele>22.84</ele>
        <time>2021-03-24T10:15:30Z</time>
      </trkpt>
      <trkpt lat="48.86647" lon="2.24164">
        <ele>23.16</ele>
        <time>2021-03-24T10:15:31Z</time>
      </trkpt>
      <trkpt lat="48.86648" lon="2.24165">
        <ele>22.91</ele>
        <time>2021-03-24T10:15:32Z</time>
      </trkpt>
      <trkpt lat="48.86649" lon="2.24166">
        <ele>23.11</ele>
        <time>2021-03-24T10:15:33Z</time>
      </trkpt>
      <trkpt lat="48.86655" lon="2.24172">
        <ele>22.85</ele>
        <time>2021-03-24T10:15:42Z</time>
      </trkpt>
      <trkpt lat="48.86656" lon="2.24174">
        <ele>23.01</ele>
        <time>2021-03-24T10:15:43Z</time>
      </trkpt>
      <trkpt lat="48.86656" lon="2.24176">
        <ele>23.38</ele>
        <time>2021-03-24T10:15:44Z</time>
      </trkpt>
      <trkpt lat="48.86658" lon="2.24177">
        <ele>23.33</ele>
        <time>2021-03-24T10:15:45Z</time>
      </trkpt>
      <trkpt lat="48.86659" lon="2.24179">
        <ele>22.74</ele>
        <time>2021-03-24T10:15:46Z</time>
      </trkpt>
      <trkpt lat="48.86661" lon="2.2418">
        <ele>23.13</ele>
        <time>2021-03-24T10:15:47Z</time>
      </trkpt>
      <trkpt lat="48.86665" lon="2.24186">
        <ele>22.91</ele>
        <time>2021-03-24T10:15:51Z</time>
      </trkpt>
      <trkpt lat="48.86667" lon="2.24187">
        <ele>22.83</ele>
        <time>2021-03-24T10:15:52Z</time>
      </trkpt>
      <trkpt lat="48.86668" lon="2.24187">
        <ele>22.91</ele>
        <time>2021-03-24T10:15:53Z</time>
      </trkpt>
      <trkpt lat="48.8667" lon="2.24187">
        <ele>22.82</ele>
        <time>2021-03-24T10:15:54Z</time>
      </trkpt>
      <trkpt lat="48.86671" lon="2.24188">
        <ele>23.42</ele>
        <time>2021-03-24T10:15:55Z</time>
      </trkpt>
      <trkpt lat="48.86673" lon="2.24189">
        <ele>23.06</ele>
        <time>2021-03-24T10:15:56Z</time>
      </trkpt>
      <trkpt lat="48.86675" lon="2.2419">
        <ele>23.02</ele>
        <time>2021-03-24T10:15:57Z</time>
      </trkpt>
      <trkpt lat="48.86676" lon="2.24191">
        <ele>23.09</ele>
        <time>2021-03-24T10:15:58Z</time>
      </trkpt>
      <trkpt lat="48.86677" lon="2.24192">
        <ele>22.87</ele>
        <time>2021-03-24T10:15:59Z</time>
      </trkpt>
      <trkpt lat="48.86679" lon="2.24193">
        <ele>22.87</ele>
        <time>2021-03-24T10:16:00Z</time>
      </trkpt>
      <trkpt lat="48.8668" lon="2.24195">
        <ele>22.89</ele>
        <time>2021-03-24T10:16:01Z</time>
      </trkpt>
      <trkpt lat="48.86681" lon="2.24196">
        <ele>22.81</ele>
        <time>2021-03-24T10:16:02Z</time>
      </trkpt>
      <trkpt lat="48.86682" lon="2.24197">
        <ele>22.85</ele>
        <time>2021-03-24T10:16:03Z</time>
      </trkpt>
      <trkpt lat="48.86696" lon="2.24217">
        <ele>23.01</ele>
        <time>2021-03-24T10:16:17Z</time>
      </trkpt>
      <trkpt lat="48.86697" lon="2.24218">
        <ele>22.35</ele>
        <time>2021-03-24T10:16:18Z</time>
      </trkpt>
      <trkpt lat="48.86698" lon="2.24219">
        <ele>22.26</ele>
        <time>2021-03-24T10:16:19Z</time>
      </trkpt>
      <trkpt lat="48.86699" lon="2.2422">
        <ele>22.44</ele>
        <time>2021-03-24T10:16:20Z</time>
      </trkpt>
      <trkpt lat="48.867" lon="2.24222">
        <ele>22.53</ele>
        <time>2021-03-24T10:16:21Z</time>
      </trkpt>
      <trkpt lat="48.86701" lon="2.24223">
        <ele>21.9</ele>
        <time>2021-03-24T10:16:22Z</time>
      </trkpt>
      <trkpt lat="48.86718" lon="2.24232">
        <ele>21.82</ele>
        <time>2021-03-24T10:16:35Z</time>
      </trkpt>
      <trkpt lat="48.86733" lon="2.24229">
        <ele>21.75</ele>
        <time>2021-03-24T10:16:49Z</time>
      </trkpt>
      <trkpt lat="48.86738" lon="2.24228">
        <ele>22.12</ele>
        <time>2021-03-24T10:16:55Z</time>
      </trkpt>
      <trkpt lat="48.86739" lon="2.24227">
        <ele>22.06</ele>
        <time>2021-03-24T10:16:56Z</time>
      </trkpt>
      <trkpt lat="48.8674" lon="2.24227">
        <ele>21.88</ele>
        <time>2021-03-24T10:16:57Z</time>
      </trkpt>
      <trkpt lat="48.86742" lon="2.24227">
        <ele>21.97</ele>
        <time>2021-03-24T10:16:58Z</time>
      </trkpt>
      <trkpt lat="48.86743" lon="2.24227">
        <ele>21.73</ele>
        <time>2021-03-24T10:16:59Z</time>
      </trkpt>
      <trkpt lat="48.8675" lon="2.24232">
        <ele>21.7</ele>
        <time>2021-03-24T10:17:15Z</time>
      </trkpt>
      <trkpt lat="48.86755" lon="2.24232">
        <ele>21.26</ele>
        <time>2021-03-24T10:17:37Z</time>
      </trkpt>
      <trkpt lat="48.86756" lon="2.24232">
        <ele>21.42</ele>
        <time>2021-03-24T10:17:38Z</time>
      </trkpt>
      <trkpt lat="48.86772" lon="2.24245">
        <ele>20.85</ele>
        <time>2021-03-24T10:17:52Z</time>
      </trkpt>
      <trkpt lat="48.86782" lon="2.24258">
        <ele>21.29</ele>
        <time>2021-03-24T10:18:01Z</time>
      </trkpt>
      <trkpt lat="48.86802" lon="2.2428">
        <ele>21.14</ele>
        <time>2021-03-24T10:18:17Z</time>
      </trkpt>
      <trkpt lat="48.86818" lon="2.24296">
        <ele>21.72</ele>
        <time>2021-03-24T10:18:31Z</time>
      </trkpt>
      <trkpt lat="48.86827" lon="2.24308">
        <ele>21.75</ele>
        <time>2021-03-24T10:18:40Z</time>
      </trkpt>
      <trkpt lat="48.86838" lon="2.24319">
        <ele>22.16</ele>
        <time>2021-03-24T10:18:51Z</time>
      </trkpt>
      <trkpt lat="48.8684" lon="2.2432">
        <ele>21.92</ele>
        <time>2021-03-24T10:18:53Z</time>
      </trkpt>
      <trkpt lat="48.86845" lon="2.24325">
        <ele>22.06</ele>
        <time>2021-03-24T10:18:58Z</time>
      </trkpt>
      <trkpt lat="48.86856" lon="2.24334">
        <ele>22.17</ele>
        <time>2021-03-24T10:19:07Z</time>
      </trkpt>
      <trkpt lat="48.86862" lon="2.24339">
        <ele>21.8</ele>
        <time>2021-03-24T10:19:11Z</time>
      </trkpt>
      <trkpt lat="48.86882" lon="2.24356">
        <ele>22.32</ele>
        <time>2021-03-24T10:19:27Z</time>
      </trkpt>
      <trkpt lat="48.86896" lon="2.24367">
        <ele>22.34</ele>
        <time>2021-03-24T10:19:39Z</time>
      </trkpt>
      <trkpt lat="48.86913" lon="2.24381">
        <ele>22.42</ele>
        <time>2021-03-24T10:19:51Z</time>
      </trkpt>
      <trkpt lat="48.86914" lon="2.24382">
        <ele>21.91</ele>
        <time>2021-03-24T10:19:52Z</time>
      </trkpt>
      <trkpt lat="48.86921" lon="2.24388">
        <ele>21.77</ele>
        <time>2021-03-24T10:19:57Z</time>
      </trkpt>
      <trkpt lat="48.86939" lon="2.24404">
        <ele>22.05</ele>
        <time>2021-03-24T10:20:11Z</time>
      </trkpt>
      <trkpt lat="48.86956" lon="2.24412">
        <ele>21.86</ele>
        <time>2021-03-24T10:20:24Z</time>
      </trkpt>
      <trkpt lat="48.86965" lon="2.24419">
        <ele>22.5</ele>
        <time>2021-03-24T10:20:31Z</time>
      </trkpt>
      <trkpt lat="48.86975" lon="2.24434">
        <ele>22.59</ele>
        <time>2021-03-24T10:20:43Z</time>
      </trkpt>
      <trkpt lat="48.86985" lon="2.24442">
        <ele>22.59</ele>
        <time>2021-03-24T10:20:52Z</time>
      </trkpt>
      <trkpt lat="48.86999" lon="2.24454">
        <ele>22.23</ele>
        <time>2021-03-24T10:21:03Z</time>
      </trkpt>
      <trkpt lat="48.87009" lon="2.24473">
        <ele>23.22</ele>
        <time>2021-03-24T10:21:16Z</time>
      </trkpt>
      <trkpt lat="48.87014" lon="2.24468">
        <ele>24.1</ele>
        <time>2021-03-24T10:30:53Z</time>
      </trkpt>
    </trkseg>
  </trk>
</gpx>